UAL253 KIAH-PHNL
Flight info
| Callsign | UAL253 |
|---|---|
| Flight time | 7h 53m |
| Altitude | 36000 |
| Route | BNDTO6 CRGER JCT ELP WOBUG Q180 BXK TRM SXC C1177 FICKY R578 FOOTS/N0474F380 R578 FITES LNY JULLE5 |
| Aircraft | B772/H-SDE2E3FGHIJ5LORVWXY/LB1D1 |
Departure
| Time | 2026-05-07 14:08 |
|---|---|
| Airport | George Bush Intercontinental Airport (KIAH) |
Arrival
| Time | 2026-05-07 22:01 |
|---|---|
| Airport | Daniel K. Inouye International Airport (PHNL) |
| Time | Latitude | Longitude | Altitude | Speed | Heading |
|---|---|---|---|---|---|
| 2026-05-07 13:41 | 29.98382 | -95.33467 | 111 ft | 0 kts | 325° |
| 2026-05-07 13:58 | 29.98378 | -95.33464 | 111 ft | 2 kts | 325° |
| 2026-05-07 13:58 | 29.98363 | -95.33453 | 108 ft | 2 kts | 325° |
| 2026-05-07 13:58 | 29.98349 | -95.33440 | 110 ft | 3 kts | 302° |
| 2026-05-07 13:58 | 29.98344 | -95.33422 | 107 ft | 3 kts | 254° |
| 2026-05-07 13:59 | 29.98352 | -95.33405 | 108 ft | 3 kts | 210° |
| 2026-05-07 13:59 | 29.98365 | -95.33399 | 108 ft | 1 kts | 180° |
| 2026-05-07 13:59 | 29.98380 | -95.33399 | 108 ft | 3 kts | 180° |
| 2026-05-07 13:59 | 29.98399 | -95.33399 | 109 ft | 2 kts | 180° |
| 2026-05-07 14:00 | 29.98402 | -95.33399 | 108 ft | 0 kts | 180° |
| 2026-05-07 14:02 | 29.98401 | -95.33399 | 108 ft | 2 kts | 180° |
| 2026-05-07 14:02 | 29.98327 | -95.33408 | 110 ft | 16 kts | 204° |
| 2026-05-07 14:02 | 29.98301 | -95.33484 | 111 ft | 10 kts | 267° |
| 2026-05-07 14:03 | 29.98303 | -95.33567 | 111 ft | 11 kts | 275° |
| 2026-05-07 14:03 | 29.98311 | -95.33676 | 111 ft | 16 kts | 275° |
| 2026-05-07 14:03 | 29.98317 | -95.33816 | 111 ft | 19 kts | 271° |
| 2026-05-07 14:03 | 29.98324 | -95.33983 | 109 ft | 22 kts | 284° |
| 2026-05-07 14:04 | 29.98375 | -95.34151 | 109 ft | 22 kts | 275° |
| 2026-05-07 14:04 | 29.98376 | -95.34330 | 110 ft | 22 kts | 269° |
| 2026-05-07 14:04 | 29.98333 | -95.34501 | 111 ft | 22 kts | 253° |
| 2026-05-07 14:04 | 29.98323 | -95.34676 | 111 ft | 22 kts | 268° |
| 2026-05-07 14:05 | 29.98322 | -95.34854 | 110 ft | 22 kts | 271° |
| 2026-05-07 14:05 | 29.98324 | -95.35032 | 110 ft | 22 kts | 270° |
| 2026-05-07 14:05 | 29.98339 | -95.35163 | 111 ft | 13 kts | 305° |
| 2026-05-07 14:05 | 29.98411 | -95.35219 | 111 ft | 13 kts | 330° |
| 2026-05-07 14:06 | 29.98497 | -95.35274 | 111 ft | 17 kts | 332° |
| 2026-05-07 14:06 | 29.98602 | -95.35338 | 111 ft | 17 kts | 332° |
| 2026-05-07 14:06 | 29.98707 | -95.35401 | 109 ft | 17 kts | 332° |
| 2026-05-07 14:06 | 29.98812 | -95.35466 | 110 ft | 17 kts | 332° |
| 2026-05-07 14:07 | 29.98876 | -95.35559 | 111 ft | 16 kts | 267° |
| 2026-05-07 14:07 | 29.98830 | -95.35673 | 109 ft | 16 kts | 243° |
| 2026-05-07 14:07 | 29.98751 | -95.35751 | 110 ft | 20 kts | 180° |
| 2026-05-07 14:07 | 29.98521 | -95.35624 | 108 ft | 64 kts | 151° |
| 2026-05-07 14:08 | 29.97927 | -95.35259 | 110 ft | 129 kts | 152° |
| 2026-05-07 14:08 | 29.96958 | -95.34660 | 114 ft | 185 kts | 152° |
| 2026-05-07 14:08 | 29.95814 | -95.33989 | 848 ft | 177 kts | 152° |
| 2026-05-07 14:08 | 29.94625 | -95.33566 | 1428 ft | 193 kts | 181° |
| 2026-05-07 14:09 | 29.93346 | -95.34205 | 1865 ft | 209 kts | 231° |
| 2026-05-07 14:09 | 29.92856 | -95.35158 | 2123 ft | 215 kts | 257° |
| 2026-05-07 14:09 | 29.92838 | -95.36873 | 2295 ft | 217 kts | 290° |
| 2026-05-07 14:09 | 29.93253 | -95.38588 | 2567 ft | 229 kts | 289° |
| 2026-05-07 14:10 | 29.93652 | -95.40407 | 2902 ft | 246 kts | 287° |
| 2026-05-07 14:10 | 29.94069 | -95.42374 | 3386 ft | 254 kts | 286° |
| 2026-05-07 14:10 | 29.94622 | -95.45001 | 4354 ft | 251 kts | 284° |
| 2026-05-07 14:10 | 29.94896 | -95.46295 | 4777 ft | 252 kts | 284° |
| 2026-05-07 14:11 | 29.95318 | -95.48289 | 4997 ft | 259 kts | 284° |
| 2026-05-07 14:11 | 29.95725 | -95.50292 | 5028 ft | 250 kts | 281° |
| 2026-05-07 14:11 | 29.96027 | -95.52227 | 5189 ft | 245 kts | 280° |
| 2026-05-07 14:11 | 29.96322 | -95.54222 | 5555 ft | 255 kts | 279° |
| 2026-05-07 14:12 | 29.96616 | -95.56242 | 6161 ft | 258 kts | 279° |
| 2026-05-07 14:12 | 29.96914 | -95.58278 | 6875 ft | 253 kts | 279° |
| 2026-05-07 14:12 | 29.97210 | -95.60257 | 7548 ft | 253 kts | 279° |
| 2026-05-07 14:12 | 29.97518 | -95.62301 | 7958 ft | 262 kts | 279° |
| 2026-05-07 14:13 | 29.97851 | -95.64390 | 8487 ft | 268 kts | 282° |
| 2026-05-07 14:13 | 29.98285 | -95.66461 | 9126 ft | 269 kts | 283° |
| 2026-05-07 14:13 | 29.98757 | -95.68555 | 9876 ft | 268 kts | 284° |
| 2026-05-07 14:13 | 29.99231 | -95.70647 | 10425 ft | 275 kts | 283° |
| 2026-05-07 14:14 | 29.99729 | -95.72866 | 10572 ft | 296 kts | 283° |
| 2026-05-07 14:14 | 30.00261 | -95.75254 | 10722 ft | 318 kts | 283° |
| 2026-05-07 14:14 | 30.00827 | -95.77814 | 10873 ft | 340 kts | 283° |
| 2026-05-07 14:14 | 30.01422 | -95.80511 | 11314 ft | 352 kts | 283° |
| 2026-05-07 14:15 | 30.02031 | -95.83275 | 11988 ft | 358 kts | 282° |
| 2026-05-07 14:15 | 30.02645 | -95.86070 | 12842 ft | 360 kts | 282° |
| 2026-05-07 14:15 | 30.03263 | -95.88887 | 13738 ft | 362 kts | 282° |
| 2026-05-07 14:15 | 30.03881 | -95.91715 | 14493 ft | 365 kts | 281° |
| 2026-05-07 14:16 | 30.04505 | -95.94575 | 15201 ft | 369 kts | 281° |
| 2026-05-07 14:16 | 30.05134 | -95.97462 | 15879 ft | 373 kts | 281° |
| 2026-05-07 14:16 | 30.05769 | -96.00377 | 16583 ft | 376 kts | 280° |
| 2026-05-07 14:16 | 30.06403 | -96.03292 | 17236 ft | 380 kts | 280° |
| 2026-05-07 14:17 | 30.07040 | -96.06263 | 17898 ft | 383 kts | 278° |
| 2026-05-07 14:17 | 30.07555 | -96.09281 | 18455 ft | 385 kts | 276° |
| 2026-05-07 14:17 | 30.07741 | -96.10487 | 18675 ft | 386 kts | 276° |
| 2026-05-07 14:17 | 30.08202 | -96.13547 | 19257 ft | 388 kts | 276° |
| 2026-05-07 14:18 | 30.08664 | -96.16616 | 19856 ft | 389 kts | 276° |
| 2026-05-07 14:18 | 30.09137 | -96.19706 | 20448 ft | 391 kts | 276° |
| 2026-05-07 14:18 | 30.09614 | -96.22802 | 21008 ft | 394 kts | 276° |
| 2026-05-07 14:18 | 30.10097 | -96.25931 | 21543 ft | 397 kts | 276° |
| 2026-05-07 14:19 | 30.10582 | -96.29084 | 22069 ft | 400 kts | 276° |
| 2026-05-07 14:19 | 30.11069 | -96.32260 | 22625 ft | 402 kts | 276° |
| 2026-05-07 14:19 | 30.11559 | -96.35455 | 23161 ft | 405 kts | 276° |
| 2026-05-07 14:19 | 30.12050 | -96.38660 | 23661 ft | 407 kts | 276° |
| 2026-05-07 14:20 | 30.12545 | -96.41897 | 24091 ft | 410 kts | 276° |
| 2026-05-07 14:20 | 30.13040 | -96.45142 | 24511 ft | 412 kts | 276° |
| 2026-05-07 14:20 | 30.13539 | -96.48416 | 24953 ft | 414 kts | 276° |
| 2026-05-07 14:20 | 30.14038 | -96.51698 | 25365 ft | 417 kts | 276° |
| 2026-05-07 14:21 | 30.14534 | -96.54964 | 25758 ft | 419 kts | 276° |
| 2026-05-07 14:21 | 30.15039 | -96.58292 | 26147 ft | 421 kts | 276° |
| 2026-05-07 14:21 | 30.15545 | -96.61637 | 26536 ft | 423 kts | 276° |
| 2026-05-07 14:21 | 30.16052 | -96.64998 | 26920 ft | 425 kts | 276° |
| 2026-05-07 14:22 | 30.16561 | -96.68375 | 27290 ft | 427 kts | 276° |
| 2026-05-07 14:22 | 30.17066 | -96.71734 | 27649 ft | 429 kts | 276° |
| 2026-05-07 14:22 | 30.17579 | -96.75142 | 27983 ft | 431 kts | 276° |
| 2026-05-07 14:22 | 30.18092 | -96.78564 | 28314 ft | 432 kts | 276° |
| 2026-05-07 14:23 | 30.18606 | -96.82002 | 28617 ft | 434 kts | 276° |
| 2026-05-07 14:23 | 30.19122 | -96.85453 | 28920 ft | 436 kts | 276° |
| 2026-05-07 14:23 | 30.19637 | -96.88906 | 29200 ft | 437 kts | 276° |
| 2026-05-07 14:23 | 30.20155 | -96.92382 | 29447 ft | 439 kts | 276° |
| 2026-05-07 14:24 | 30.20673 | -96.95869 | 29693 ft | 440 kts | 276° |
| 2026-05-07 14:24 | 30.21185 | -96.99322 | 29901 ft | 442 kts | 276° |
| 2026-05-07 14:24 | 30.21705 | -97.02833 | 30123 ft | 443 kts | 276° |
| 2026-05-07 14:24 | 30.22223 | -97.06343 | 30308 ft | 444 kts | 276° |
| 2026-05-07 14:25 | 30.22747 | -97.09879 | 30520 ft | 444 kts | 276° |
| 2026-05-07 14:25 | 30.23266 | -97.13362 | 30753 ft | 443 kts | 276° |
| 2026-05-07 14:25 | 30.23795 | -97.16904 | 31010 ft | 441 kts | 275° |
| 2026-05-07 14:25 | 30.24311 | -97.20356 | 31239 ft | 440 kts | 275° |
| 2026-05-07 14:26 | 30.24829 | -97.23837 | 31454 ft | 440 kts | 275° |
| 2026-05-07 14:26 | 30.25347 | -97.27327 | 31666 ft | 439 kts | 275° |
| 2026-05-07 14:26 | 30.25863 | -97.30813 | 31876 ft | 439 kts | 275° |
| 2026-05-07 14:26 | 30.26376 | -97.34283 | 32111 ft | 438 kts | 275° |
| 2026-05-07 14:27 | 30.26888 | -97.37760 | 32331 ft | 438 kts | 275° |
| 2026-05-07 14:27 | 30.27399 | -97.41233 | 32549 ft | 437 kts | 275° |
| 2026-05-07 14:27 | 30.27907 | -97.44691 | 32774 ft | 436 kts | 275° |
| 2026-05-07 14:27 | 30.28400 | -97.48054 | 32988 ft | 436 kts | 275° |
| 2026-05-07 14:28 | 30.28902 | -97.51488 | 33196 ft | 436 kts | 275° |
| 2026-05-07 14:28 | 30.29410 | -97.54969 | 33435 ft | 435 kts | 275° |
| 2026-05-07 14:28 | 30.29904 | -97.58360 | 33640 ft | 435 kts | 275° |
| 2026-05-07 14:28 | 30.30409 | -97.61833 | 33856 ft | 434 kts | 274° |
| 2026-05-07 14:29 | 30.30910 | -97.65277 | 34064 ft | 434 kts | 274° |
| 2026-05-07 14:29 | 30.31412 | -97.68740 | 34278 ft | 433 kts | 274° |
| 2026-05-07 14:29 | 30.31916 | -97.72167 | 34507 ft | 432 kts | 275° |
| 2026-05-07 14:29 | 30.32549 | -97.75526 | 34699 ft | 433 kts | 278° |
| 2026-05-07 14:30 | 30.33264 | -97.78906 | 34899 ft | 433 kts | 278° |
| 2026-05-07 14:30 | 30.33991 | -97.82285 | 35107 ft | 432 kts | 278° |
| 2026-05-07 14:30 | 30.34726 | -97.85703 | 35373 ft | 430 kts | 278° |
| 2026-05-07 14:30 | 30.35433 | -97.89007 | 35582 ft | 429 kts | 278° |
| 2026-05-07 14:31 | 30.36148 | -97.92376 | 35778 ft | 429 kts | 277° |
| 2026-05-07 14:31 | 30.36856 | -97.95731 | 35988 ft | 427 kts | 277° |
| 2026-05-07 14:31 | 30.37559 | -97.99078 | 36075 ft | 428 kts | 277° |
| 2026-05-07 14:32 | 30.38962 | -98.05773 | 36169 ft | 426 kts | 277° |
| 2026-05-07 14:32 | 30.40352 | -98.12420 | 36166 ft | 425 kts | 277° |
| 2026-05-07 14:33 | 30.41745 | -98.19101 | 36169 ft | 424 kts | 277° |
| 2026-05-07 14:33 | 30.43122 | -98.25720 | 36179 ft | 424 kts | 277° |
| 2026-05-07 14:34 | 30.44502 | -98.32375 | 36183 ft | 424 kts | 277° |
| 2026-05-07 14:34 | 30.45444 | -98.39057 | 36185 ft | 418 kts | 271° |
| 2026-05-07 14:35 | 30.46134 | -98.45764 | 36176 ft | 419 kts | 271° |
| 2026-05-07 14:35 | 30.46831 | -98.52475 | 36177 ft | 419 kts | 271° |
| 2026-05-07 14:36 | 30.47529 | -98.59142 | 36158 ft | 420 kts | 271° |
| 2026-05-07 14:36 | 30.48236 | -98.65893 | 36144 ft | 421 kts | 271° |
| 2026-05-07 14:37 | 30.48937 | -98.72628 | 36136 ft | 421 kts | 271° |
| 2026-05-07 14:37 | 30.49981 | -98.82706 | 36133 ft | 421 kts | 271° |
| 2026-05-07 14:38 | 30.50675 | -98.89453 | 36123 ft | 421 kts | 271° |
| 2026-05-07 14:38 | 30.51364 | -98.96188 | 36123 ft | 420 kts | 271° |
| 2026-05-07 14:39 | 30.52048 | -99.02911 | 36117 ft | 420 kts | 271° |
| 2026-05-07 14:39 | 30.52730 | -99.09651 | 36118 ft | 419 kts | 270° |
| 2026-05-07 14:40 | 30.53403 | -99.16330 | 36115 ft | 419 kts | 270° |
| 2026-05-07 14:40 | 30.54074 | -99.23027 | 36119 ft | 418 kts | 270° |
| 2026-05-07 14:41 | 30.54745 | -99.29769 | 36112 ft | 417 kts | 270° |
| 2026-05-07 14:41 | 30.55405 | -99.36432 | 36106 ft | 417 kts | 270° |
| 2026-05-07 14:42 | 30.56063 | -99.43104 | 36124 ft | 416 kts | 270° |
| 2026-05-07 14:42 | 30.56716 | -99.49756 | 36137 ft | 415 kts | 270° |
| 2026-05-07 14:43 | 30.57366 | -99.56417 | 36151 ft | 415 kts | 270° |
| 2026-05-07 14:43 | 30.58008 | -99.63041 | 36161 ft | 415 kts | 270° |
| 2026-05-07 14:44 | 30.58648 | -99.69675 | 36172 ft | 414 kts | 270° |
| 2026-05-07 14:44 | 30.59286 | -99.76309 | 36178 ft | 414 kts | 270° |
| 2026-05-07 14:45 | 30.60064 | -99.82989 | 36179 ft | 418 kts | 275° |
| 2026-05-07 14:45 | 30.61460 | -99.89528 | 36158 ft | 421 kts | 277° |
| 2026-05-07 14:46 | 30.62892 | -99.96098 | 36148 ft | 420 kts | 277° |
| 2026-05-07 14:46 | 30.64318 | -100.02710 | 36130 ft | 419 kts | 276° |
| 2026-05-07 14:47 | 30.65718 | -100.09243 | 36096 ft | 418 kts | 276° |
| 2026-05-07 14:47 | 30.67116 | -100.15801 | 36089 ft | 417 kts | 276° |
| 2026-05-07 14:48 | 30.68504 | -100.22327 | 36086 ft | 417 kts | 276° |
| 2026-05-07 14:48 | 30.69892 | -100.28870 | 36096 ft | 417 kts | 276° |
| 2026-05-07 14:49 | 30.71277 | -100.35414 | 36128 ft | 418 kts | 276° |
| 2026-05-07 14:49 | 30.72663 | -100.41983 | 36134 ft | 418 kts | 276° |
| 2026-05-07 14:50 | 30.74046 | -100.48550 | 36150 ft | 419 kts | 276° |
| 2026-05-07 14:50 | 30.75430 | -100.55144 | 36158 ft | 419 kts | 276° |
| 2026-05-07 14:51 | 30.76809 | -100.61729 | 36164 ft | 419 kts | 276° |
| 2026-05-07 14:51 | 30.78186 | -100.68323 | 36154 ft | 420 kts | 276° |
| 2026-05-07 14:52 | 30.79560 | -100.74921 | 36139 ft | 420 kts | 276° |
| 2026-05-07 14:52 | 30.80929 | -100.81509 | 36124 ft | 420 kts | 276° |
| 2026-05-07 14:53 | 30.82290 | -100.88084 | 36111 ft | 419 kts | 276° |
| 2026-05-07 14:53 | 30.83649 | -100.94664 | 36121 ft | 419 kts | 276° |
| 2026-05-07 14:54 | 30.85011 | -101.01273 | 36135 ft | 419 kts | 276° |
| 2026-05-07 14:54 | 30.86367 | -101.07873 | 36148 ft | 418 kts | 276° |
| 2026-05-07 14:55 | 30.87715 | -101.14451 | 36155 ft | 418 kts | 276° |
| 2026-05-07 14:55 | 30.89051 | -101.20990 | 36153 ft | 418 kts | 276° |
| 2026-05-07 14:56 | 30.90395 | -101.27591 | 36140 ft | 418 kts | 276° |
| 2026-05-07 14:56 | 30.91505 | -101.33051 | 36132 ft | 418 kts | 276° |
| 2026-05-07 14:57 | 30.93063 | -101.40739 | 36110 ft | 418 kts | 276° |
| 2026-05-07 14:57 | 30.94394 | -101.47327 | 36092 ft | 418 kts | 276° |
| 2026-05-07 14:58 | 30.95505 | -101.52843 | 36077 ft | 418 kts | 276° |
| 2026-05-07 14:58 | 30.96833 | -101.59448 | 36066 ft | 419 kts | 276° |
| 2026-05-07 14:59 | 30.98152 | -101.66026 | 36074 ft | 419 kts | 276° |
| 2026-05-07 14:59 | 30.99478 | -101.72659 | 36070 ft | 419 kts | 275° |
| 2026-05-07 15:00 | 31.00801 | -101.79298 | 36079 ft | 419 kts | 275° |
| 2026-05-07 15:00 | 31.02110 | -101.85889 | 36072 ft | 420 kts | 275° |
| 2026-05-07 15:01 | 31.03429 | -101.92540 | 36073 ft | 420 kts | 275° |
| 2026-05-07 15:01 | 31.04742 | -101.99184 | 36072 ft | 420 kts | 275° |
| 2026-05-07 15:02 | 31.06045 | -102.05797 | 36064 ft | 420 kts | 275° |
| 2026-05-07 15:02 | 31.07352 | -102.12444 | 36071 ft | 420 kts | 275° |
| 2026-05-07 15:03 | 31.08655 | -102.19097 | 36077 ft | 420 kts | 275° |
| 2026-05-07 15:03 | 31.09950 | -102.25728 | 36078 ft | 420 kts | 275° |
| 2026-05-07 15:04 | 31.11239 | -102.32343 | 36060 ft | 420 kts | 275° |
| 2026-05-07 15:04 | 31.12534 | -102.39011 | 36060 ft | 420 kts | 275° |
| 2026-05-07 15:05 | 31.13823 | -102.45668 | 36059 ft | 420 kts | 275° |
| 2026-05-07 15:05 | 31.15111 | -102.52336 | 36069 ft | 420 kts | 275° |
| 2026-05-07 15:06 | 31.16391 | -102.58986 | 36071 ft | 420 kts | 275° |
| 2026-05-07 15:06 | 31.17668 | -102.65639 | 36078 ft | 421 kts | 275° |
| 2026-05-07 15:07 | 31.18945 | -102.72309 | 36087 ft | 421 kts | 275° |
| 2026-05-07 15:07 | 31.20209 | -102.78937 | 36098 ft | 421 kts | 275° |
| 2026-05-07 15:08 | 31.21487 | -102.85653 | 36100 ft | 421 kts | 275° |
| 2026-05-07 15:08 | 31.22753 | -102.92325 | 36095 ft | 421 kts | 275° |
| 2026-05-07 15:09 | 31.24009 | -102.98964 | 36092 ft | 421 kts | 275° |
| 2026-05-07 15:09 | 31.25274 | -103.05677 | 36076 ft | 421 kts | 275° |
| 2026-05-07 15:10 | 31.26534 | -103.12377 | 36077 ft | 421 kts | 275° |
| 2026-05-07 15:10 | 31.27785 | -103.19051 | 36108 ft | 421 kts | 275° |
| 2026-05-07 15:11 | 31.29039 | -103.25761 | 36143 ft | 421 kts | 275° |
| 2026-05-07 15:11 | 31.30279 | -103.32416 | 36178 ft | 421 kts | 275° |
| 2026-05-07 15:12 | 31.31520 | -103.39101 | 36204 ft | 421 kts | 275° |
| 2026-05-07 15:12 | 31.32756 | -103.45774 | 36222 ft | 420 kts | 274° |
| 2026-05-07 15:13 | 31.33985 | -103.52433 | 36225 ft | 420 kts | 274° |
| 2026-05-07 15:13 | 31.35216 | -103.59123 | 36222 ft | 420 kts | 274° |
| 2026-05-07 15:14 | 31.36442 | -103.65805 | 36201 ft | 420 kts | 274° |
| 2026-05-07 15:14 | 31.37666 | -103.72496 | 36173 ft | 419 kts | 274° |
| 2026-05-07 15:15 | 31.38876 | -103.79136 | 36141 ft | 419 kts | 274° |
| 2026-05-07 15:15 | 31.40092 | -103.85826 | 36119 ft | 419 kts | 274° |
| 2026-05-07 15:16 | 31.41306 | -103.92524 | 36091 ft | 419 kts | 274° |
| 2026-05-07 15:16 | 31.42511 | -103.99199 | 36090 ft | 420 kts | 274° |
| 2026-05-07 15:17 | 31.43708 | -104.05842 | 36094 ft | 420 kts | 274° |
| 2026-05-07 15:17 | 31.44911 | -104.12546 | 36098 ft | 420 kts | 274° |
| 2026-05-07 15:18 | 31.46105 | -104.19220 | 36095 ft | 420 kts | 274° |
| 2026-05-07 15:18 | 31.47304 | -104.25941 | 36096 ft | 420 kts | 274° |
| 2026-05-07 15:19 | 31.48496 | -104.32645 | 36101 ft | 421 kts | 274° |
| 2026-05-07 15:19 | 31.49687 | -104.39367 | 36098 ft | 421 kts | 274° |
| 2026-05-07 15:20 | 31.50874 | -104.46085 | 36094 ft | 421 kts | 274° |
| 2026-05-07 15:20 | 31.52049 | -104.52757 | 36094 ft | 421 kts | 274° |
| 2026-05-07 15:21 | 31.53234 | -104.59508 | 36086 ft | 422 kts | 274° |
| 2026-05-07 15:21 | 31.54409 | -104.66227 | 36090 ft | 422 kts | 274° |
| 2026-05-07 15:22 | 31.55589 | -104.72989 | 36079 ft | 423 kts | 274° |
| 2026-05-07 15:22 | 31.56760 | -104.79726 | 36071 ft | 423 kts | 274° |
| 2026-05-07 15:23 | 31.57939 | -104.86527 | 36072 ft | 422 kts | 274° |
| 2026-05-07 15:23 | 31.59096 | -104.93223 | 36059 ft | 422 kts | 273° |
| 2026-05-07 15:24 | 31.60258 | -104.99974 | 36050 ft | 422 kts | 273° |
| 2026-05-07 15:24 | 31.61414 | -105.06713 | 36054 ft | 421 kts | 273° |
| 2026-05-07 15:25 | 31.62567 | -105.13461 | 36047 ft | 421 kts | 273° |
| 2026-05-07 15:25 | 31.63712 | -105.20183 | 36044 ft | 422 kts | 273° |
| 2026-05-07 15:26 | 31.64862 | -105.26951 | 36042 ft | 422 kts | 273° |
| 2026-05-07 15:26 | 31.66003 | -105.33692 | 36045 ft | 422 kts | 273° |
| 2026-05-07 15:27 | 31.67148 | -105.40476 | 36040 ft | 423 kts | 273° |
| 2026-05-07 15:27 | 31.68280 | -105.47209 | 36037 ft | 423 kts | 273° |
| 2026-05-07 15:28 | 31.69419 | -105.54004 | 36035 ft | 423 kts | 273° |
| 2026-05-07 15:28 | 31.70555 | -105.60809 | 36035 ft | 423 kts | 273° |
| 2026-05-07 15:29 | 31.71681 | -105.67571 | 36030 ft | 424 kts | 273° |
| 2026-05-07 15:29 | 31.72807 | -105.74362 | 36017 ft | 424 kts | 273° |
| 2026-05-07 15:30 | 31.73931 | -105.81162 | 36023 ft | 424 kts | 273° |
| 2026-05-07 15:30 | 31.75050 | -105.87953 | 36020 ft | 425 kts | 273° |
| 2026-05-07 15:31 | 31.76169 | -105.94771 | 36013 ft | 425 kts | 273° |
| 2026-05-07 15:31 | 31.77284 | -106.01589 | 36035 ft | 426 kts | 273° |
| 2026-05-07 15:32 | 31.78402 | -106.08443 | 36068 ft | 426 kts | 273° |
| 2026-05-07 15:32 | 31.79513 | -106.15286 | 36101 ft | 426 kts | 273° |
| 2026-05-07 15:33 | 31.80623 | -106.22135 | 36135 ft | 426 kts | 273° |
| 2026-05-07 15:33 | 31.81858 | -106.28922 | 36142 ft | 430 kts | 277° |
| 2026-05-07 15:34 | 31.83844 | -106.35621 | 36159 ft | 435 kts | 281° |
| 2026-05-07 15:34 | 31.85937 | -106.42325 | 36161 ft | 435 kts | 281° |
| 2026-05-07 15:35 | 31.87996 | -106.48978 | 36159 ft | 436 kts | 281° |
| 2026-05-07 15:35 | 31.90061 | -106.55704 | 36141 ft | 437 kts | 281° |
| 2026-05-07 15:36 | 31.92124 | -106.62447 | 36170 ft | 437 kts | 281° |
| 2026-05-07 15:36 | 31.94184 | -106.69196 | 36165 ft | 436 kts | 281° |
| 2026-05-07 15:37 | 31.96223 | -106.75891 | 36167 ft | 436 kts | 281° |
| 2026-05-07 15:37 | 31.98269 | -106.82623 | 36133 ft | 436 kts | 281° |
| 2026-05-07 15:38 | 32.00304 | -106.89334 | 36094 ft | 437 kts | 281° |
| 2026-05-07 15:38 | 32.02344 | -106.96079 | 36052 ft | 437 kts | 281° |
| 2026-05-07 15:39 | 32.04393 | -107.02866 | 36057 ft | 438 kts | 281° |
| 2026-05-07 15:39 | 32.06429 | -107.09623 | 36048 ft | 438 kts | 281° |
| 2026-05-07 15:40 | 32.08457 | -107.16372 | 36031 ft | 439 kts | 281° |
| 2026-05-07 15:40 | 32.10495 | -107.23167 | 36019 ft | 439 kts | 281° |
| 2026-05-07 15:41 | 32.12537 | -107.29989 | 35977 ft | 440 kts | 281° |
| 2026-05-07 15:41 | 32.14560 | -107.36763 | 36003 ft | 441 kts | 281° |
| 2026-05-07 15:42 | 32.16591 | -107.43583 | 36042 ft | 441 kts | 281° |
| 2026-05-07 15:42 | 32.18639 | -107.50472 | 36086 ft | 442 kts | 281° |
| 2026-05-07 15:43 | 32.20660 | -107.57287 | 36127 ft | 443 kts | 281° |
| 2026-05-07 15:43 | 32.22699 | -107.64175 | 36151 ft | 444 kts | 281° |
| 2026-05-07 15:44 | 32.24726 | -107.71045 | 36158 ft | 444 kts | 281° |
| 2026-05-07 15:44 | 32.26765 | -107.77968 | 36162 ft | 445 kts | 281° |
| 2026-05-07 15:45 | 32.28464 | -107.83746 | 36149 ft | 446 kts | 281° |
| 2026-05-07 15:45 | 32.30831 | -107.91817 | 36100 ft | 447 kts | 281° |
| 2026-05-07 15:46 | 32.33864 | -108.02194 | 36038 ft | 448 kts | 281° |
| 2026-05-07 15:47 | 32.35571 | -108.08047 | 36034 ft | 449 kts | 281° |
| 2026-05-07 15:47 | 32.37602 | -108.15028 | 36062 ft | 450 kts | 281° |
| 2026-05-07 15:48 | 32.39642 | -108.22055 | 36074 ft | 451 kts | 281° |
| 2026-05-07 15:48 | 32.41661 | -108.29028 | 36072 ft | 452 kts | 281° |
| 2026-05-07 15:49 | 32.43699 | -108.36084 | 36064 ft | 453 kts | 282° |
| 2026-05-07 15:49 | 32.45746 | -108.43184 | 36043 ft | 454 kts | 282° |
| 2026-05-07 15:50 | 32.47764 | -108.50206 | 36094 ft | 454 kts | 282° |
| 2026-05-07 15:50 | 32.49804 | -108.57320 | 36089 ft | 456 kts | 282° |
| 2026-05-07 15:51 | 32.51839 | -108.64432 | 36096 ft | 458 kts | 282° |
| 2026-05-07 15:51 | 32.53892 | -108.71626 | 36084 ft | 460 kts | 282° |
| 2026-05-07 15:52 | 32.55941 | -108.78823 | 36059 ft | 462 kts | 282° |
| 2026-05-07 15:52 | 32.57994 | -108.86049 | 36028 ft | 463 kts | 282° |
| 2026-05-07 15:53 | 32.59975 | -108.93265 | 36062 ft | 464 kts | 281° |
| 2026-05-07 15:53 | 32.60858 | -108.96941 | 36255 ft | 462 kts | 280° |
| 2026-05-07 15:53 | 32.61703 | -109.00610 | 36502 ft | 460 kts | 279° |
| 2026-05-07 15:53 | 32.62543 | -109.04295 | 36739 ft | 460 kts | 279° |
| 2026-05-07 15:54 | 32.63379 | -109.07944 | 36884 ft | 461 kts | 280° |
| 2026-05-07 15:54 | 32.64226 | -109.11608 | 37024 ft | 461 kts | 280° |
| 2026-05-07 15:54 | 32.65078 | -109.15264 | 37201 ft | 461 kts | 280° |
| 2026-05-07 15:54 | 32.65936 | -109.18925 | 37345 ft | 462 kts | 281° |
| 2026-05-07 15:55 | 32.66801 | -109.22611 | 37496 ft | 462 kts | 281° |
| 2026-05-07 15:55 | 32.67667 | -109.26293 | 37671 ft | 462 kts | 281° |
| 2026-05-07 15:55 | 32.68534 | -109.29988 | 37865 ft | 462 kts | 281° |
| 2026-05-07 15:56 | 32.70246 | -109.37299 | 37995 ft | 463 kts | 281° |
| 2026-05-07 15:56 | 32.71974 | -109.44708 | 38040 ft | 465 kts | 281° |
| 2026-05-07 15:57 | 32.73696 | -109.52115 | 38081 ft | 465 kts | 281° |
| 2026-05-07 15:57 | 32.75410 | -109.59506 | 38098 ft | 466 kts | 281° |
| 2026-05-07 15:58 | 32.77131 | -109.66950 | 38105 ft | 467 kts | 281° |
| 2026-05-07 15:58 | 32.78849 | -109.74404 | 38097 ft | 468 kts | 281° |
| 2026-05-07 15:59 | 32.80566 | -109.81875 | 38074 ft | 469 kts | 282° |
| 2026-05-07 15:59 | 32.82282 | -109.89362 | 38048 ft | 470 kts | 282° |
| 2026-05-07 16:00 | 32.84002 | -109.96893 | 38025 ft | 471 kts | 282° |
| 2026-05-07 16:00 | 32.85707 | -110.04373 | 37996 ft | 472 kts | 282° |
| 2026-05-07 16:01 | 32.87423 | -110.11933 | 37990 ft | 473 kts | 282° |
| 2026-05-07 16:01 | 32.89137 | -110.19509 | 37983 ft | 475 kts | 282° |
| 2026-05-07 16:02 | 32.90849 | -110.27088 | 38000 ft | 475 kts | 282° |
| 2026-05-07 16:02 | 32.92562 | -110.34700 | 37986 ft | 476 kts | 282° |
| 2026-05-07 16:03 | 32.94273 | -110.42328 | 37989 ft | 477 kts | 283° |
| 2026-05-07 16:03 | 32.95984 | -110.49979 | 37980 ft | 478 kts | 283° |
| 2026-05-07 16:04 | 32.97694 | -110.57649 | 37970 ft | 479 kts | 283° |
| 2026-05-07 16:04 | 32.99392 | -110.65281 | 37954 ft | 479 kts | 282° |
| 2026-05-07 16:05 | 33.01097 | -110.72974 | 37961 ft | 480 kts | 283° |
| 2026-05-07 16:05 | 33.02799 | -110.80694 | 37972 ft | 480 kts | 283° |
| 2026-05-07 16:06 | 33.04489 | -110.88371 | 37965 ft | 480 kts | 283° |
| 2026-05-07 16:06 | 33.06174 | -110.96053 | 37971 ft | 480 kts | 283° |
| 2026-05-07 16:07 | 33.07861 | -111.03763 | 37964 ft | 480 kts | 283° |
| 2026-05-07 16:07 | 33.09541 | -111.11468 | 37964 ft | 480 kts | 283° |
| 2026-05-07 16:08 | 33.11218 | -111.19185 | 37963 ft | 480 kts | 283° |
| 2026-05-07 16:08 | 33.12881 | -111.26859 | 37963 ft | 481 kts | 283° |
| 2026-05-07 16:09 | 33.14547 | -111.34588 | 37973 ft | 481 kts | 283° |
| 2026-05-07 16:09 | 33.16203 | -111.42324 | 37996 ft | 481 kts | 283° |
| 2026-05-07 16:10 | 33.17847 | -111.50027 | 38010 ft | 481 kts | 284° |
| 2026-05-07 16:10 | 33.19494 | -111.57767 | 38030 ft | 481 kts | 284° |
| 2026-05-07 16:11 | 33.21139 | -111.65517 | 38031 ft | 481 kts | 284° |
| 2026-05-07 16:11 | 33.22775 | -111.73258 | 38032 ft | 481 kts | 284° |
| 2026-05-07 16:12 | 33.24408 | -111.81006 | 38023 ft | 480 kts | 284° |
| 2026-05-07 16:12 | 33.26035 | -111.88750 | 38034 ft | 481 kts | 284° |
| 2026-05-07 16:13 | 33.27657 | -111.96497 | 38018 ft | 481 kts | 284° |
| 2026-05-07 16:13 | 33.29278 | -112.04261 | 37993 ft | 482 kts | 284° |
| 2026-05-07 16:14 | 33.30885 | -112.11993 | 37987 ft | 482 kts | 285° |
| 2026-05-07 16:14 | 33.32500 | -112.19781 | 38001 ft | 483 kts | 285° |
| 2026-05-07 16:15 | 33.34115 | -112.27602 | 38013 ft | 483 kts | 285° |
| 2026-05-07 16:15 | 33.35723 | -112.35412 | 38024 ft | 484 kts | 285° |
| 2026-05-07 16:16 | 33.37317 | -112.43183 | 38014 ft | 484 kts | 285° |
| 2026-05-07 16:16 | 33.38917 | -112.51008 | 38020 ft | 484 kts | 285° |
| 2026-05-07 16:17 | 33.40512 | -112.58833 | 38021 ft | 484 kts | 285° |
| 2026-05-07 16:17 | 33.42098 | -112.66648 | 38027 ft | 483 kts | 285° |
| 2026-05-07 16:18 | 33.43684 | -112.74481 | 38024 ft | 482 kts | 285° |
| 2026-05-07 16:18 | 33.45200 | -112.82273 | 38023 ft | 482 kts | 282° |
| 2026-05-07 16:19 | 33.45917 | -112.90294 | 38011 ft | 483 kts | 276° |
| 2026-05-07 16:19 | 33.46382 | -112.98327 | 38000 ft | 483 kts | 276° |
| 2026-05-07 16:20 | 33.46856 | -113.06342 | 37982 ft | 482 kts | 276° |
| 2026-05-07 16:20 | 33.47354 | -113.14354 | 37979 ft | 482 kts | 276° |
| 2026-05-07 16:21 | 33.47860 | -113.22356 | 37980 ft | 481 kts | 276° |
| 2026-05-07 16:21 | 33.48362 | -113.30353 | 38010 ft | 481 kts | 276° |
| 2026-05-07 16:22 | 33.48853 | -113.38283 | 38014 ft | 480 kts | 276° |
| 2026-05-07 16:22 | 33.49340 | -113.46228 | 38024 ft | 480 kts | 276° |
| 2026-05-07 16:23 | 33.49822 | -113.54218 | 38034 ft | 479 kts | 276° |
| 2026-05-07 16:23 | 33.50296 | -113.62135 | 38041 ft | 478 kts | 276° |
| 2026-05-07 16:24 | 33.50508 | -113.65708 | 38036 ft | 478 kts | 276° |
| 2026-05-07 16:24 | 33.50978 | -113.73677 | 38034 ft | 478 kts | 276° |
| 2026-05-07 16:25 | 33.51439 | -113.81596 | 38018 ft | 478 kts | 276° |
| 2026-05-07 16:25 | 33.51899 | -113.89561 | 38009 ft | 477 kts | 276° |
| 2026-05-07 16:26 | 33.52351 | -113.97503 | 37990 ft | 477 kts | 276° |
| 2026-05-07 16:26 | 33.52798 | -114.05428 | 37988 ft | 477 kts | 276° |
| 2026-05-07 16:27 | 33.53239 | -114.13362 | 37991 ft | 477 kts | 276° |
| 2026-05-07 16:27 | 33.53673 | -114.21242 | 37993 ft | 477 kts | 276° |
| 2026-05-07 16:28 | 33.54106 | -114.29175 | 37983 ft | 477 kts | 276° |
| 2026-05-07 16:28 | 33.54532 | -114.37107 | 38002 ft | 477 kts | 276° |
| 2026-05-07 16:29 | 33.54953 | -114.45043 | 38004 ft | 477 kts | 276° |
| 2026-05-07 16:29 | 33.55371 | -114.52985 | 38015 ft | 477 kts | 275° |
| 2026-05-07 16:30 | 33.55718 | -114.59692 | 38014 ft | 478 kts | 275° |
| 2026-05-07 16:30 | 33.56039 | -114.65934 | 38018 ft | 478 kts | 275° |
| 2026-05-07 16:31 | 33.56445 | -114.73920 | 38015 ft | 478 kts | 275° |
| 2026-05-07 16:31 | 33.56844 | -114.81884 | 38019 ft | 478 kts | 275° |
| 2026-05-07 16:32 | 33.57235 | -114.89791 | 38012 ft | 478 kts | 275° |
| 2026-05-07 16:32 | 33.57624 | -114.97743 | 38009 ft | 478 kts | 275° |
| 2026-05-07 16:33 | 33.58008 | -115.05696 | 38001 ft | 478 kts | 275° |
| 2026-05-07 16:33 | 33.58387 | -115.13677 | 37989 ft | 478 kts | 275° |
| 2026-05-07 16:34 | 33.58761 | -115.21644 | 37991 ft | 478 kts | 276° |
| 2026-05-07 16:34 | 33.59067 | -115.28259 | 37990 ft | 478 kts | 276° |
| 2026-05-07 16:35 | 33.59431 | -115.36204 | 37995 ft | 478 kts | 276° |
| 2026-05-07 16:35 | 33.59792 | -115.44194 | 37991 ft | 479 kts | 276° |
| 2026-05-07 16:36 | 33.60146 | -115.52167 | 37984 ft | 479 kts | 276° |
| 2026-05-07 16:36 | 33.60496 | -115.60144 | 37996 ft | 478 kts | 276° |
| 2026-05-07 16:37 | 33.60838 | -115.68079 | 37980 ft | 478 kts | 276° |
| 2026-05-07 16:37 | 33.61177 | -115.76046 | 37997 ft | 479 kts | 276° |
| 2026-05-07 16:38 | 33.61512 | -115.84031 | 37983 ft | 479 kts | 276° |
| 2026-05-07 16:38 | 33.61842 | -115.92019 | 37989 ft | 479 kts | 276° |
| 2026-05-07 16:39 | 33.62166 | -116.00009 | 37991 ft | 479 kts | 276° |
| 2026-05-07 16:39 | 33.62485 | -116.07996 | 37999 ft | 479 kts | 276° |
| 2026-05-07 16:40 | 33.62724 | -116.15991 | 37995 ft | 481 kts | 272° |
| 2026-05-07 16:40 | 33.62081 | -116.24014 | 38001 ft | 484 kts | 266° |
| 2026-05-07 16:41 | 33.61195 | -116.31980 | 37994 ft | 485 kts | 266° |
| 2026-05-07 16:41 | 33.60316 | -116.40010 | 37996 ft | 486 kts | 266° |
| 2026-05-07 16:42 | 33.59461 | -116.48052 | 38000 ft | 486 kts | 266° |
| 2026-05-07 16:42 | 33.58613 | -116.56100 | 38018 ft | 486 kts | 266° |
| 2026-05-07 16:43 | 33.57760 | -116.64152 | 37999 ft | 487 kts | 266° |
| 2026-05-07 16:43 | 33.56901 | -116.72205 | 38041 ft | 487 kts | 266° |
| 2026-05-07 16:44 | 33.56040 | -116.80212 | 38052 ft | 487 kts | 266° |
| 2026-05-07 16:44 | 33.55162 | -116.88324 | 38081 ft | 488 kts | 266° |
| 2026-05-07 16:45 | 33.54283 | -116.96398 | 38078 ft | 489 kts | 266° |
| 2026-05-07 16:45 | 33.53404 | -117.04424 | 38072 ft | 489 kts | 266° |
| 2026-05-07 16:46 | 33.52511 | -117.12519 | 38077 ft | 490 kts | 266° |
| 2026-05-07 16:46 | 33.51612 | -117.20629 | 38091 ft | 490 kts | 266° |
| 2026-05-07 16:47 | 33.50709 | -117.28726 | 38087 ft | 490 kts | 266° |
| 2026-05-07 16:47 | 33.49800 | -117.36829 | 38095 ft | 491 kts | 266° |
| 2026-05-07 16:48 | 33.48883 | -117.44942 | 38086 ft | 491 kts | 266° |
| 2026-05-07 16:48 | 33.47961 | -117.53051 | 38097 ft | 491 kts | 266° |
| 2026-05-07 16:49 | 33.47041 | -117.61111 | 38088 ft | 492 kts | 266° |
| 2026-05-07 16:49 | 33.46107 | -117.69238 | 38083 ft | 492 kts | 266° |
| 2026-05-07 16:50 | 33.45167 | -117.77371 | 38089 ft | 493 kts | 266° |
| 2026-05-07 16:50 | 33.44221 | -117.85502 | 38094 ft | 493 kts | 266° |
| 2026-05-07 16:51 | 33.43270 | -117.93631 | 38081 ft | 493 kts | 265° |
| 2026-05-07 16:51 | 33.42313 | -118.01767 | 38091 ft | 493 kts | 265° |
| 2026-05-07 16:52 | 33.41352 | -118.09887 | 38090 ft | 493 kts | 265° |
| 2026-05-07 16:52 | 33.40390 | -118.17970 | 38101 ft | 493 kts | 265° |
| 2026-05-07 16:53 | 33.39420 | -118.26079 | 38100 ft | 493 kts | 265° |
| 2026-05-07 16:53 | 33.38445 | -118.34193 | 38113 ft | 493 kts | 265° |
| 2026-05-07 16:54 | 33.36525 | -118.42106 | 38105 ft | 502 kts | 246° |
| 2026-05-07 16:54 | 33.32533 | -118.48920 | 38110 ft | 507 kts | 229° |
| 2026-05-07 16:55 | 33.27692 | -118.55075 | 38105 ft | 508 kts | 229° |
| 2026-05-07 16:55 | 33.22895 | -118.61283 | 38112 ft | 509 kts | 230° |
| 2026-05-07 16:56 | 33.18143 | -118.67565 | 38111 ft | 509 kts | 230° |
| 2026-05-07 16:56 | 33.11002 | -118.76940 | 38116 ft | 509 kts | 230° |
| 2026-05-07 16:57 | 33.06222 | -118.83192 | 38108 ft | 509 kts | 230° |
| 2026-05-07 16:57 | 33.01474 | -118.89396 | 38112 ft | 509 kts | 230° |
| 2026-05-07 16:58 | 32.96694 | -118.95635 | 38102 ft | 509 kts | 230° |
| 2026-05-07 16:58 | 32.91922 | -119.01852 | 38091 ft | 508 kts | 230° |
| 2026-05-07 16:59 | 32.87150 | -119.08059 | 38107 ft | 508 kts | 230° |
| 2026-05-07 16:59 | 32.82376 | -119.14258 | 38096 ft | 508 kts | 229° |
| 2026-05-07 17:00 | 32.77585 | -119.20468 | 38116 ft | 508 kts | 229° |
| 2026-05-07 17:00 | 32.72839 | -119.26609 | 38110 ft | 508 kts | 229° |
| 2026-05-07 17:01 | 32.68050 | -119.32794 | 38116 ft | 508 kts | 229° |
| 2026-05-07 17:01 | 32.63270 | -119.38959 | 38119 ft | 507 kts | 229° |
| 2026-05-07 17:02 | 32.58480 | -119.45126 | 38123 ft | 507 kts | 229° |
| 2026-05-07 17:02 | 32.53698 | -119.51273 | 38110 ft | 507 kts | 229° |
| 2026-05-07 17:03 | 32.48949 | -119.57369 | 38127 ft | 507 kts | 229° |
| 2026-05-07 17:03 | 32.44147 | -119.63514 | 38116 ft | 507 kts | 229° |
| 2026-05-07 17:04 | 32.39357 | -119.69625 | 38122 ft | 506 kts | 229° |
| 2026-05-07 17:04 | 32.34577 | -119.75716 | 38133 ft | 506 kts | 229° |
| 2026-05-07 17:05 | 32.29783 | -119.81818 | 38135 ft | 506 kts | 229° |
| 2026-05-07 17:05 | 32.24989 | -119.87910 | 38137 ft | 506 kts | 229° |
| 2026-05-07 17:06 | 32.20187 | -119.94002 | 38130 ft | 506 kts | 229° |
| 2026-05-07 17:06 | 32.15427 | -120.00030 | 38133 ft | 505 kts | 229° |
| 2026-05-07 17:07 | 32.10638 | -120.06086 | 38138 ft | 504 kts | 229° |
| 2026-05-07 17:07 | 32.05843 | -120.12140 | 38144 ft | 504 kts | 229° |
| 2026-05-07 17:08 | 32.01058 | -120.18172 | 38146 ft | 504 kts | 229° |
| 2026-05-07 17:08 | 31.96385 | -120.24300 | 38137 ft | 501 kts | 235° |
| 2026-05-07 17:09 | 31.92737 | -120.31188 | 38148 ft | 497 kts | 246° |
| 2026-05-07 17:09 | 31.90089 | -120.38656 | 38154 ft | 494 kts | 252° |
| 2026-05-07 17:10 | 31.87615 | -120.46200 | 38154 ft | 494 kts | 252° |
| 2026-05-07 17:10 | 31.85102 | -120.53748 | 38150 ft | 495 kts | 251° |
| 2026-05-07 17:11 | 31.82558 | -120.61273 | 38155 ft | 495 kts | 251° |
| 2026-05-07 17:11 | 31.79999 | -120.68795 | 38160 ft | 495 kts | 251° |
| 2026-05-07 17:12 | 31.77437 | -120.76314 | 38158 ft | 496 kts | 251° |
| 2026-05-07 17:12 | 31.74871 | -120.83830 | 38160 ft | 495 kts | 251° |
| 2026-05-07 17:13 | 31.72303 | -120.91339 | 38166 ft | 495 kts | 251° |
| 2026-05-07 17:13 | 31.69735 | -120.98830 | 37898 ft | 489 kts | 250° |
| 2026-05-07 17:14 | 31.68474 | -121.02501 | 38025 ft | 480 kts | 250° |
| 2026-05-07 17:14 | 31.67273 | -121.05990 | 38092 ft | 478 kts | 250° |
| 2026-05-07 17:14 | 31.64788 | -121.13214 | 38166 ft | 480 kts | 250° |
| 2026-05-07 17:15 | 31.62285 | -121.20473 | 38171 ft | 482 kts | 250° |
| 2026-05-07 17:15 | 31.59759 | -121.27778 | 38172 ft | 484 kts | 250° |
| 2026-05-07 17:16 | 31.57220 | -121.35107 | 38170 ft | 484 kts | 250° |
| 2026-05-07 17:16 | 31.55066 | -121.42561 | 38166 ft | 481 kts | 259° |
| 2026-05-07 17:17 | 31.53635 | -121.50229 | 38176 ft | 480 kts | 259° |
| 2026-05-07 17:17 | 31.52247 | -121.57833 | 38178 ft | 480 kts | 259° |
| 2026-05-07 17:18 | 31.50819 | -121.65470 | 38178 ft | 480 kts | 259° |
| 2026-05-07 17:18 | 31.49363 | -121.73108 | 38178 ft | 479 kts | 259° |
| 2026-05-07 17:19 | 31.47902 | -121.80726 | 38183 ft | 479 kts | 259° |
| 2026-05-07 17:19 | 31.46437 | -121.88339 | 38188 ft | 479 kts | 259° |
| 2026-05-07 17:20 | 31.44969 | -121.95947 | 38186 ft | 479 kts | 259° |
| 2026-05-07 17:20 | 31.43504 | -122.03514 | 38190 ft | 479 kts | 258° |
| 2026-05-07 17:21 | 31.42029 | -122.11118 | 38196 ft | 479 kts | 258° |
| 2026-05-07 17:21 | 31.40546 | -122.18734 | 38195 ft | 479 kts | 258° |
| 2026-05-07 17:22 | 31.39057 | -122.26349 | 38196 ft | 479 kts | 258° |
| 2026-05-07 17:22 | 31.37819 | -122.32660 | 38201 ft | 479 kts | 258° |
| 2026-05-07 17:23 | 31.36324 | -122.40261 | 38200 ft | 479 kts | 258° |
| 2026-05-07 17:23 | 31.34824 | -122.47861 | 38200 ft | 479 kts | 258° |
| 2026-05-07 17:24 | 31.33317 | -122.55472 | 38198 ft | 479 kts | 258° |
| 2026-05-07 17:24 | 31.31808 | -122.63066 | 38202 ft | 479 kts | 258° |
| 2026-05-07 17:25 | 31.30298 | -122.70648 | 38207 ft | 479 kts | 258° |
| 2026-05-07 17:25 | 31.28788 | -122.78200 | 38208 ft | 479 kts | 258° |
| 2026-05-07 17:26 | 31.27266 | -122.85789 | 38205 ft | 479 kts | 258° |
| 2026-05-07 17:26 | 31.25740 | -122.93374 | 38209 ft | 479 kts | 258° |
| 2026-05-07 17:27 | 31.24209 | -123.00955 | 38214 ft | 479 kts | 258° |
| 2026-05-07 17:27 | 31.22675 | -123.08533 | 38208 ft | 479 kts | 258° |
| 2026-05-07 17:28 | 31.21143 | -123.16071 | 38208 ft | 479 kts | 258° |
| 2026-05-07 17:28 | 31.19599 | -123.23644 | 38216 ft | 479 kts | 257° |
| 2026-05-07 17:29 | 31.18053 | -123.31213 | 38214 ft | 479 kts | 257° |
| 2026-05-07 17:29 | 31.16499 | -123.38789 | 38215 ft | 479 kts | 257° |
| 2026-05-07 17:30 | 31.14941 | -123.46362 | 38222 ft | 479 kts | 257° |
| 2026-05-07 17:30 | 31.13382 | -123.53918 | 38225 ft | 479 kts | 257° |
| 2026-05-07 17:31 | 31.11777 | -123.61461 | 38224 ft | 479 kts | 257° |
| 2026-05-07 17:31 | 31.10123 | -123.68987 | 38223 ft | 479 kts | 257° |
| 2026-05-07 17:32 | 31.08475 | -123.76474 | 38224 ft | 479 kts | 257° |
| 2026-05-07 17:32 | 31.06819 | -123.84009 | 38226 ft | 479 kts | 257° |
| 2026-05-07 17:33 | 31.05166 | -123.91531 | 38224 ft | 479 kts | 257° |
| 2026-05-07 17:33 | 31.03508 | -123.99049 | 38227 ft | 479 kts | 257° |
| 2026-05-07 17:34 | 31.01847 | -124.06565 | 38231 ft | 479 kts | 257° |
| 2026-05-07 17:34 | 31.00179 | -124.14078 | 38239 ft | 479 kts | 257° |
| 2026-05-07 17:35 | 30.98508 | -124.21589 | 38247 ft | 479 kts | 257° |
| 2026-05-07 17:35 | 30.96833 | -124.29096 | 38230 ft | 479 kts | 256° |
| 2026-05-07 17:36 | 30.95162 | -124.36562 | 38230 ft | 479 kts | 257° |
| 2026-05-07 17:36 | 30.93479 | -124.44061 | 38238 ft | 478 kts | 257° |
| 2026-05-07 17:37 | 30.91790 | -124.51567 | 38251 ft | 478 kts | 256° |
| 2026-05-07 17:37 | 30.90100 | -124.59056 | 38236 ft | 478 kts | 257° |
| 2026-05-07 17:38 | 30.88403 | -124.66553 | 38241 ft | 478 kts | 256° |
| 2026-05-07 17:38 | 30.86715 | -124.73982 | 38243 ft | 478 kts | 256° |
| 2026-05-07 17:39 | 30.85013 | -124.81455 | 38249 ft | 478 kts | 256° |
| 2026-05-07 17:39 | 30.83308 | -124.88920 | 38245 ft | 477 kts | 256° |
| 2026-05-07 17:40 | 30.81598 | -124.96389 | 38253 ft | 477 kts | 256° |
| 2026-05-07 17:40 | 30.79886 | -125.03840 | 38250 ft | 477 kts | 256° |
| 2026-05-07 17:41 | 30.78171 | -125.11287 | 38249 ft | 477 kts | 256° |
| 2026-05-07 17:41 | 30.76449 | -125.18740 | 38249 ft | 476 kts | 256° |
| 2026-05-07 17:42 | 30.74738 | -125.26127 | 38252 ft | 476 kts | 256° |
| 2026-05-07 17:42 | 30.73011 | -125.33560 | 38250 ft | 476 kts | 256° |
| 2026-05-07 17:43 | 30.71280 | -125.40990 | 38251 ft | 476 kts | 256° |
| 2026-05-07 17:43 | 30.69542 | -125.48428 | 38247 ft | 476 kts | 256° |
| 2026-05-07 17:44 | 30.67804 | -125.55851 | 38258 ft | 476 kts | 256° |
| 2026-05-07 17:44 | 30.66061 | -125.63271 | 38256 ft | 476 kts | 256° |
| 2026-05-07 17:45 | 30.64311 | -125.70700 | 38257 ft | 476 kts | 256° |
| 2026-05-07 17:45 | 30.62560 | -125.78112 | 38255 ft | 476 kts | 256° |
| 2026-05-07 17:46 | 30.60814 | -125.85482 | 38256 ft | 476 kts | 256° |
| 2026-05-07 17:46 | 30.59053 | -125.92897 | 38262 ft | 476 kts | 256° |
| 2026-05-07 17:47 | 30.57294 | -126.00283 | 38259 ft | 475 kts | 256° |
| 2026-05-07 17:47 | 30.55526 | -126.07687 | 38262 ft | 475 kts | 256° |
| 2026-05-07 17:48 | 30.53756 | -126.15073 | 38263 ft | 475 kts | 256° |
| 2026-05-07 17:48 | 30.51983 | -126.22455 | 38263 ft | 475 kts | 256° |
| 2026-05-07 17:49 | 30.50208 | -126.29830 | 38263 ft | 475 kts | 256° |
| 2026-05-07 17:49 | 30.48438 | -126.37162 | 38267 ft | 474 kts | 255° |
| 2026-05-07 17:50 | 30.46652 | -126.44537 | 38262 ft | 474 kts | 255° |
| 2026-05-07 17:50 | 30.44864 | -126.51904 | 38264 ft | 474 kts | 255° |
| 2026-05-07 17:51 | 30.43076 | -126.59250 | 38267 ft | 474 kts | 255° |
| 2026-05-07 17:51 | 30.41294 | -126.66553 | 38263 ft | 473 kts | 255° |
| 2026-05-07 17:52 | 30.39499 | -126.73887 | 38271 ft | 473 kts | 255° |
| 2026-05-07 17:52 | 30.37701 | -126.81216 | 38272 ft | 473 kts | 255° |
| 2026-05-07 17:53 | 30.35899 | -126.88542 | 38270 ft | 473 kts | 255° |
| 2026-05-07 17:53 | 30.34099 | -126.95843 | 38268 ft | 473 kts | 255° |
| 2026-05-07 17:54 | 30.32287 | -127.03171 | 38269 ft | 474 kts | 255° |
| 2026-05-07 17:54 | 30.30469 | -127.10504 | 38274 ft | 474 kts | 256° |
| 2026-05-07 17:55 | 30.28642 | -127.17853 | 38273 ft | 475 kts | 256° |
| 2026-05-07 17:55 | 30.26812 | -127.25196 | 38273 ft | 475 kts | 256° |
| 2026-05-07 17:56 | 30.24976 | -127.32545 | 38275 ft | 476 kts | 256° |
| 2026-05-07 17:56 | 30.23130 | -127.39911 | 38278 ft | 476 kts | 256° |
| 2026-05-07 17:57 | 30.21596 | -127.46021 | 38274 ft | 477 kts | 256° |
| 2026-05-07 17:57 | 30.19436 | -127.54600 | 38275 ft | 478 kts | 257° |
| 2026-05-07 17:58 | 30.17578 | -127.61961 | 38275 ft | 478 kts | 257° |
| 2026-05-07 17:58 | 30.15707 | -127.69352 | 38282 ft | 479 kts | 257° |
| 2026-05-07 17:59 | 30.13833 | -127.76736 | 38275 ft | 479 kts | 257° |
| 2026-05-07 17:59 | 30.11953 | -127.84125 | 38281 ft | 480 kts | 257° |
| 2026-05-07 18:00 | 30.10076 | -127.91479 | 38281 ft | 480 kts | 257° |
| 2026-05-07 18:00 | 30.08186 | -127.98871 | 38286 ft | 480 kts | 257° |
| 2026-05-07 18:01 | 30.06291 | -128.06261 | 38286 ft | 480 kts | 257° |
| 2026-05-07 18:01 | 30.04393 | -128.13646 | 38283 ft | 480 kts | 257° |
| 2026-05-07 18:02 | 30.01538 | -128.24714 | 38291 ft | 479 kts | 257° |
| 2026-05-07 18:03 | 29.99633 | -128.32077 | 38290 ft | 479 kts | 257° |
| 2026-05-07 18:03 | 29.97722 | -128.39445 | 38290 ft | 478 kts | 257° |
| 2026-05-07 18:04 | 29.95812 | -128.46791 | 38288 ft | 478 kts | 257° |
| 2026-05-07 18:04 | 29.93911 | -128.54080 | 38287 ft | 478 kts | 257° |
| 2026-05-07 18:05 | 29.91993 | -128.61420 | 38291 ft | 477 kts | 257° |
| 2026-05-07 18:05 | 29.90075 | -128.68740 | 38298 ft | 477 kts | 257° |
| 2026-05-07 18:06 | 29.88154 | -128.76056 | 38292 ft | 477 kts | 257° |
| 2026-05-07 18:06 | 29.86230 | -128.83364 | 38293 ft | 477 kts | 257° |
| 2026-05-07 18:07 | 29.84299 | -128.90679 | 38291 ft | 476 kts | 257° |
| 2026-05-07 18:07 | 29.82368 | -128.97976 | 38297 ft | 476 kts | 257° |
| 2026-05-07 18:08 | 29.80434 | -129.05269 | 38296 ft | 476 kts | 257° |
| 2026-05-07 18:08 | 29.78506 | -129.12521 | 38299 ft | 476 kts | 257° |
| 2026-05-07 18:09 | 29.76564 | -129.19805 | 38288 ft | 476 kts | 257° |
| 2026-05-07 18:09 | 29.74619 | -129.27084 | 38293 ft | 476 kts | 257° |
| 2026-05-07 18:10 | 29.72667 | -129.34370 | 38297 ft | 476 kts | 256° |
| 2026-05-07 18:10 | 29.70715 | -129.41640 | 38294 ft | 476 kts | 256° |
| 2026-05-07 18:11 | 29.68760 | -129.48906 | 38288 ft | 475 kts | 256° |
| 2026-05-07 18:11 | 29.66810 | -129.56132 | 38301 ft | 475 kts | 256° |
| 2026-05-07 18:12 | 29.64847 | -129.63390 | 38302 ft | 475 kts | 256° |
| 2026-05-07 18:12 | 29.62881 | -129.70645 | 38298 ft | 475 kts | 256° |
| 2026-05-07 18:13 | 29.61242 | -129.76677 | 38297 ft | 475 kts | 256° |
| 2026-05-07 18:13 | 29.59269 | -129.83923 | 38301 ft | 475 kts | 256° |
| 2026-05-07 18:14 | 29.57289 | -129.91178 | 38302 ft | 475 kts | 256° |
| 2026-05-07 18:14 | 29.55308 | -129.98416 | 38296 ft | 475 kts | 256° |
| 2026-05-07 18:15 | 29.53325 | -130.05649 | 38302 ft | 475 kts | 256° |
| 2026-05-07 18:15 | 29.51334 | -130.12891 | 38304 ft | 475 kts | 256° |
| 2026-05-07 18:16 | 29.49353 | -130.20081 | 38305 ft | 475 kts | 256° |
| 2026-05-07 18:16 | 29.47358 | -130.27303 | 38306 ft | 475 kts | 256° |
| 2026-05-07 18:17 | 29.45360 | -130.34522 | 38305 ft | 475 kts | 256° |
| 2026-05-07 18:17 | 29.43354 | -130.41750 | 38299 ft | 475 kts | 256° |
| 2026-05-07 18:18 | 29.41362 | -130.48914 | 38305 ft | 475 kts | 256° |
| 2026-05-07 18:18 | 29.39342 | -130.56159 | 38306 ft | 475 kts | 255° |
| 2026-05-07 18:19 | 29.37338 | -130.63330 | 38301 ft | 475 kts | 255° |
| 2026-05-07 18:19 | 29.35321 | -130.70535 | 38303 ft | 475 kts | 255° |
| 2026-05-07 18:20 | 29.33299 | -130.77736 | 38302 ft | 475 kts | 255° |
| 2026-05-07 18:20 | 29.31271 | -130.84945 | 38306 ft | 474 kts | 255° |
| 2026-05-07 18:21 | 29.29243 | -130.92138 | 38307 ft | 474 kts | 255° |
| 2026-05-07 18:21 | 29.27213 | -130.99326 | 38304 ft | 474 kts | 255° |
| 2026-05-07 18:22 | 29.25187 | -131.06473 | 38302 ft | 474 kts | 255° |
| 2026-05-07 18:22 | 29.23134 | -131.13698 | 38305 ft | 474 kts | 255° |
| 2026-05-07 18:23 | 29.21091 | -131.20871 | 38305 ft | 474 kts | 255° |
| 2026-05-07 18:23 | 29.19057 | -131.28003 | 38307 ft | 474 kts | 255° |
| 2026-05-07 18:24 | 29.17009 | -131.35165 | 38307 ft | 473 kts | 255° |
| 2026-05-07 18:24 | 29.14959 | -131.42322 | 38307 ft | 473 kts | 255° |
| 2026-05-07 18:25 | 29.12901 | -131.49486 | 38307 ft | 473 kts | 255° |
| 2026-05-07 18:25 | 29.10858 | -131.56585 | 38302 ft | 473 kts | 255° |
| 2026-05-07 18:26 | 29.08794 | -131.63739 | 38303 ft | 473 kts | 255° |
| 2026-05-07 18:26 | 29.06727 | -131.70889 | 38303 ft | 473 kts | 255° |
| 2026-05-07 18:27 | 29.04660 | -131.78023 | 38307 ft | 473 kts | 255° |
| 2026-05-07 18:27 | 29.02590 | -131.85153 | 38305 ft | 473 kts | 255° |
| 2026-05-07 18:28 | 29.00512 | -131.92292 | 38305 ft | 473 kts | 255° |
| 2026-05-07 18:28 | 28.98448 | -131.99367 | 38307 ft | 473 kts | 255° |
| 2026-05-07 18:29 | 28.96364 | -132.06499 | 38305 ft | 473 kts | 255° |
| 2026-05-07 18:29 | 28.94275 | -132.13628 | 38307 ft | 473 kts | 255° |
| 2026-05-07 18:30 | 28.92185 | -132.20745 | 38308 ft | 473 kts | 255° |
| 2026-05-07 18:30 | 28.90092 | -132.27860 | 38303 ft | 473 kts | 255° |
| 2026-05-07 18:31 | 28.87990 | -132.34987 | 38302 ft | 473 kts | 255° |
| 2026-05-07 18:31 | 28.85898 | -132.42066 | 38307 ft | 473 kts | 255° |
| 2026-05-07 18:32 | 28.83787 | -132.49191 | 38309 ft | 473 kts | 255° |
| 2026-05-07 18:32 | 28.81676 | -132.56303 | 38306 ft | 473 kts | 255° |
| 2026-05-07 18:33 | 28.79558 | -132.63424 | 38306 ft | 473 kts | 255° |
| 2026-05-07 18:33 | 28.77439 | -132.70530 | 38301 ft | 473 kts | 255° |
| 2026-05-07 18:34 | 28.75313 | -132.77646 | 38305 ft | 473 kts | 255° |
| 2026-05-07 18:34 | 28.73188 | -132.84746 | 38302 ft | 473 kts | 255° |
| 2026-05-07 18:35 | 28.71072 | -132.91795 | 38311 ft | 473 kts | 255° |
| 2026-05-07 18:35 | 28.68936 | -132.98899 | 38300 ft | 473 kts | 255° |
| 2026-05-07 18:36 | 28.66800 | -133.05986 | 38302 ft | 473 kts | 255° |
| 2026-05-07 18:36 | 28.64662 | -133.13068 | 38305 ft | 473 kts | 255° |
| 2026-05-07 18:37 | 28.62516 | -133.20157 | 38294 ft | 473 kts | 254° |
| 2026-05-07 18:37 | 28.60383 | -133.27192 | 38290 ft | 472 kts | 254° |
| 2026-05-07 18:38 | 28.58236 | -133.34256 | 38306 ft | 472 kts | 254° |
| 2026-05-07 18:38 | 28.56083 | -133.41325 | 38301 ft | 472 kts | 254° |
| 2026-05-07 18:39 | 28.53931 | -133.48375 | 38301 ft | 472 kts | 254° |
| 2026-05-07 18:39 | 28.51777 | -133.55420 | 38295 ft | 472 kts | 254° |
| 2026-05-07 18:40 | 28.49620 | -133.62458 | 38297 ft | 471 kts | 254° |
| 2026-05-07 18:40 | 28.47457 | -133.69500 | 38288 ft | 471 kts | 254° |
| 2026-05-07 18:41 | 28.45309 | -133.76478 | 38292 ft | 471 kts | 253° |
| 2026-05-07 18:41 | 28.43145 | -133.83495 | 38294 ft | 470 kts | 253° |
| 2026-05-07 18:42 | 28.40979 | -133.90505 | 38287 ft | 470 kts | 253° |
| 2026-05-07 18:42 | 28.38807 | -133.97519 | 38295 ft | 470 kts | 253° |
| 2026-05-07 18:43 | 28.36636 | -134.04514 | 38293 ft | 469 kts | 253° |
| 2026-05-07 18:43 | 28.34474 | -134.11466 | 38292 ft | 469 kts | 253° |
| 2026-05-07 18:44 | 28.32296 | -134.18457 | 38296 ft | 469 kts | 253° |
| 2026-05-07 18:44 | 28.30119 | -134.25430 | 38293 ft | 469 kts | 253° |
| 2026-05-07 18:45 | 28.27940 | -134.32394 | 38292 ft | 468 kts | 253° |
| 2026-05-07 18:45 | 28.25759 | -134.39350 | 38289 ft | 468 kts | 253° |
| 2026-05-07 18:46 | 28.23577 | -134.46298 | 38290 ft | 467 kts | 253° |
| 2026-05-07 18:46 | 28.21392 | -134.53238 | 38287 ft | 467 kts | 253° |
| 2026-05-07 18:47 | 28.19213 | -134.60147 | 38289 ft | 467 kts | 253° |
| 2026-05-07 18:47 | 28.17025 | -134.67071 | 38291 ft | 466 kts | 253° |
| 2026-05-07 18:48 | 28.14835 | -134.73986 | 38287 ft | 466 kts | 253° |
| 2026-05-07 18:48 | 28.12647 | -134.80882 | 38289 ft | 466 kts | 252° |
| 2026-05-07 18:49 | 28.10450 | -134.87793 | 38288 ft | 465 kts | 252° |
| 2026-05-07 18:49 | 28.08255 | -134.94685 | 38286 ft | 465 kts | 252° |
| 2026-05-07 18:50 | 28.06054 | -135.01580 | 38283 ft | 465 kts | 252° |
| 2026-05-07 18:50 | 28.03855 | -135.08457 | 38285 ft | 464 kts | 252° |
| 2026-05-07 18:51 | 28.01664 | -135.15293 | 38286 ft | 464 kts | 252° |
| 2026-05-07 18:51 | 27.99457 | -135.22169 | 38287 ft | 464 kts | 252° |
| 2026-05-07 18:52 | 27.97243 | -135.29050 | 38284 ft | 464 kts | 252° |
| 2026-05-07 18:52 | 27.95034 | -135.35902 | 38287 ft | 464 kts | 252° |
| 2026-05-07 18:53 | 27.92834 | -135.42715 | 38279 ft | 463 kts | 252° |
| 2026-05-07 18:53 | 27.90620 | -135.49556 | 38277 ft | 463 kts | 252° |
| 2026-05-07 18:54 | 27.88400 | -135.56405 | 38280 ft | 463 kts | 252° |
| 2026-05-07 18:54 | 27.86176 | -135.63251 | 38277 ft | 463 kts | 252° |
| 2026-05-07 18:55 | 27.83964 | -135.70048 | 38285 ft | 463 kts | 252° |
| 2026-05-07 18:55 | 27.81737 | -135.76878 | 38279 ft | 463 kts | 252° |
| 2026-05-07 18:56 | 27.79503 | -135.83717 | 38284 ft | 463 kts | 252° |
| 2026-05-07 18:56 | 27.77268 | -135.90544 | 38277 ft | 463 kts | 252° |
| 2026-05-07 18:57 | 27.75026 | -135.97381 | 38281 ft | 464 kts | 252° |
| 2026-05-07 18:57 | 27.72792 | -136.04181 | 38274 ft | 464 kts | 252° |
| 2026-05-07 18:58 | 27.70542 | -136.11013 | 38279 ft | 464 kts | 252° |
| 2026-05-07 18:58 | 27.68293 | -136.17834 | 38273 ft | 464 kts | 252° |
| 2026-05-07 18:59 | 27.66039 | -136.24653 | 38281 ft | 464 kts | 252° |
| 2026-05-07 18:59 | 27.63793 | -136.31437 | 38278 ft | 464 kts | 252° |
| 2026-05-07 19:00 | 27.61532 | -136.38255 | 38274 ft | 464 kts | 252° |
| 2026-05-07 19:00 | 27.59266 | -136.45073 | 38281 ft | 464 kts | 252° |
| 2026-05-07 19:01 | 27.56996 | -136.51891 | 38274 ft | 465 kts | 252° |
| 2026-05-07 19:01 | 27.54721 | -136.58709 | 38269 ft | 465 kts | 252° |
| 2026-05-07 19:02 | 27.52822 | -136.64392 | 38273 ft | 465 kts | 252° |
| 2026-05-07 19:02 | 27.50540 | -136.71209 | 38266 ft | 465 kts | 252° |
| 2026-05-07 19:03 | 27.48251 | -136.78037 | 38268 ft | 465 kts | 252° |
| 2026-05-07 19:03 | 27.45964 | -136.84842 | 38269 ft | 465 kts | 252° |
| 2026-05-07 19:04 | 27.43667 | -136.91668 | 38277 ft | 466 kts | 252° |
| 2026-05-07 19:04 | 27.41369 | -136.98481 | 38258 ft | 466 kts | 252° |
| 2026-05-07 19:05 | 27.39079 | -137.05258 | 38276 ft | 466 kts | 252° |
| 2026-05-07 19:05 | 27.36775 | -137.12066 | 38277 ft | 466 kts | 251° |
| 2026-05-07 19:06 | 27.34467 | -137.18873 | 38278 ft | 466 kts | 251° |
| 2026-05-07 19:06 | 27.30997 | -137.29081 | 38270 ft | 465 kts | 251° |
| 2026-05-07 19:07 | 27.28677 | -137.35889 | 38268 ft | 466 kts | 251° |
| 2026-05-07 19:07 | 27.26359 | -137.42683 | 38267 ft | 465 kts | 251° |
| 2026-05-07 19:08 | 27.24037 | -137.49475 | 38287 ft | 467 kts | 251° |
| 2026-05-07 19:08 | 27.22870 | -137.52882 | 38501 ft | 466 kts | 251° |
| 2026-05-07 19:08 | 27.21710 | -137.56266 | 38790 ft | 464 kts | 251° |
| 2026-05-07 19:09 | 27.20550 | -137.59646 | 39038 ft | 462 kts | 252° |
| 2026-05-07 19:09 | 27.19408 | -137.62971 | 39227 ft | 461 kts | 252° |
| 2026-05-07 19:09 | 27.18240 | -137.66369 | 39407 ft | 461 kts | 252° |
| 2026-05-07 19:09 | 27.17099 | -137.69686 | 39560 ft | 461 kts | 252° |
| 2026-05-07 19:10 | 27.15947 | -137.73034 | 39737 ft | 460 kts | 252° |
| 2026-05-07 19:10 | 27.14791 | -137.76389 | 39891 ft | 460 kts | 252° |
| 2026-05-07 19:10 | 27.13636 | -137.79739 | 40059 ft | 459 kts | 252° |
| 2026-05-07 19:10 | 27.12485 | -137.83073 | 40161 ft | 459 kts | 252° |
| 2026-05-07 19:11 | 27.10177 | -137.89753 | 40254 ft | 459 kts | 252° |
| 2026-05-07 19:11 | 27.07859 | -137.96447 | 40256 ft | 459 kts | 252° |
| 2026-05-07 19:12 | 27.05543 | -138.03125 | 40264 ft | 459 kts | 251° |
| 2026-05-07 19:12 | 27.03224 | -138.09800 | 40262 ft | 459 kts | 251° |
| 2026-05-07 19:13 | 27.00905 | -138.16467 | 40260 ft | 459 kts | 251° |
| 2026-05-07 19:13 | 26.98593 | -138.23092 | 40257 ft | 458 kts | 251° |
| 2026-05-07 19:14 | 26.96258 | -138.29751 | 40259 ft | 458 kts | 251° |
| 2026-05-07 19:14 | 26.93925 | -138.36390 | 40258 ft | 458 kts | 251° |
| 2026-05-07 19:15 | 26.91592 | -138.43024 | 40258 ft | 457 kts | 251° |
| 2026-05-07 19:15 | 26.89257 | -138.49655 | 40254 ft | 457 kts | 251° |
| 2026-05-07 19:16 | 26.86914 | -138.56294 | 40252 ft | 458 kts | 251° |
| 2026-05-07 19:16 | 26.84584 | -138.62888 | 40250 ft | 458 kts | 251° |
| 2026-05-07 19:17 | 26.82235 | -138.69524 | 40248 ft | 458 kts | 251° |
| 2026-05-07 19:17 | 26.79889 | -138.76137 | 40252 ft | 458 kts | 251° |
| 2026-05-07 19:18 | 26.77532 | -138.82772 | 40250 ft | 458 kts | 251° |
| 2026-05-07 19:18 | 26.75176 | -138.89394 | 40251 ft | 458 kts | 251° |
| 2026-05-07 19:19 | 26.72816 | -138.96014 | 40251 ft | 458 kts | 251° |
| 2026-05-07 19:19 | 26.70465 | -139.02597 | 40245 ft | 458 kts | 251° |
| 2026-05-07 19:20 | 26.68100 | -139.09209 | 40248 ft | 458 kts | 251° |
| 2026-05-07 19:20 | 26.65732 | -139.15817 | 40248 ft | 458 kts | 251° |
| 2026-05-07 19:21 | 26.63358 | -139.22431 | 40243 ft | 458 kts | 251° |
| 2026-05-07 19:21 | 26.60986 | -139.29029 | 40244 ft | 457 kts | 251° |
| 2026-05-07 19:22 | 26.58624 | -139.35588 | 40248 ft | 457 kts | 251° |
| 2026-05-07 19:22 | 26.56243 | -139.42187 | 40247 ft | 457 kts | 251° |
| 2026-05-07 19:23 | 26.53860 | -139.48781 | 40243 ft | 457 kts | 251° |
| 2026-05-07 19:23 | 26.51479 | -139.55361 | 40240 ft | 457 kts | 251° |
| 2026-05-07 19:24 | 26.49094 | -139.61937 | 40244 ft | 457 kts | 251° |
| 2026-05-07 19:24 | 26.46707 | -139.68511 | 40239 ft | 457 kts | 251° |
| 2026-05-07 19:25 | 26.44328 | -139.75051 | 40230 ft | 457 kts | 250° |
| 2026-05-07 19:25 | 26.41929 | -139.81632 | 40233 ft | 457 kts | 250° |
| 2026-05-07 19:26 | 26.39528 | -139.88212 | 40238 ft | 457 kts | 250° |
| 2026-05-07 19:26 | 26.37122 | -139.94791 | 40234 ft | 457 kts | 250° |
| 2026-05-07 19:27 | 26.34734 | -140.01313 | 40239 ft | 457 kts | 250° |
| 2026-05-07 19:27 | 26.32326 | -140.07877 | 40233 ft | 457 kts | 250° |
| 2026-05-07 19:28 | 26.29911 | -140.14450 | 40235 ft | 457 kts | 250° |
| 2026-05-07 19:28 | 26.27496 | -140.21009 | 40232 ft | 457 kts | 250° |
| 2026-05-07 19:29 | 26.25091 | -140.27533 | 40247 ft | 458 kts | 250° |
| 2026-05-07 19:29 | 26.22666 | -140.34100 | 40231 ft | 458 kts | 250° |
| 2026-05-07 19:30 | 26.20238 | -140.40665 | 40239 ft | 458 kts | 250° |
| 2026-05-07 19:30 | 26.17810 | -140.47218 | 40228 ft | 458 kts | 250° |
| 2026-05-07 19:31 | 26.15391 | -140.53738 | 40229 ft | 458 kts | 250° |
| 2026-05-07 19:31 | 26.12956 | -140.60289 | 40228 ft | 458 kts | 250° |
| 2026-05-07 19:32 | 26.10518 | -140.66838 | 40226 ft | 458 kts | 250° |
| 2026-05-07 19:32 | 26.08076 | -140.73386 | 40234 ft | 458 kts | 250° |
| 2026-05-07 19:33 | 26.05627 | -140.79943 | 40225 ft | 458 kts | 250° |
| 2026-05-07 19:33 | 26.03178 | -140.86489 | 40236 ft | 458 kts | 250° |
| 2026-05-07 19:34 | 26.00722 | -140.93044 | 40233 ft | 459 kts | 250° |
| 2026-05-07 19:34 | 25.98266 | -140.99586 | 40228 ft | 459 kts | 250° |
| 2026-05-07 19:35 | 25.95823 | -141.06084 | 40216 ft | 459 kts | 249° |
| 2026-05-07 19:35 | 25.93344 | -141.12668 | 40222 ft | 459 kts | 249° |
| 2026-05-07 19:36 | 25.90890 | -141.19175 | 40231 ft | 459 kts | 249° |
| 2026-05-07 19:36 | 25.88420 | -141.25714 | 40229 ft | 459 kts | 249° |
| 2026-05-07 19:37 | 25.85946 | -141.32252 | 40230 ft | 459 kts | 249° |
| 2026-05-07 19:37 | 25.83463 | -141.38802 | 40224 ft | 460 kts | 249° |
| 2026-05-07 19:38 | 25.80982 | -141.45341 | 40223 ft | 460 kts | 249° |
| 2026-05-07 19:38 | 25.78496 | -141.51878 | 40225 ft | 460 kts | 249° |
| 2026-05-07 19:39 | 25.76007 | -141.58414 | 40223 ft | 460 kts | 249° |
| 2026-05-07 19:39 | 25.73934 | -141.63850 | 40220 ft | 460 kts | 249° |
| 2026-05-07 19:40 | 25.71028 | -141.71459 | 40223 ft | 460 kts | 249° |
| 2026-05-07 19:40 | 25.68529 | -141.77990 | 40221 ft | 460 kts | 249° |
| 2026-05-07 19:41 | 25.66034 | -141.84500 | 40222 ft | 460 kts | 249° |
| 2026-05-07 19:41 | 25.63528 | -141.91030 | 40221 ft | 460 kts | 249° |
| 2026-05-07 19:42 | 25.61018 | -141.97559 | 40221 ft | 461 kts | 249° |
| 2026-05-07 19:42 | 25.58505 | -142.04087 | 40217 ft | 461 kts | 249° |
| 2026-05-07 19:43 | 25.55983 | -142.10625 | 40217 ft | 461 kts | 249° |
| 2026-05-07 19:43 | 25.53459 | -142.17160 | 40217 ft | 461 kts | 249° |
| 2026-05-07 19:44 | 25.50952 | -142.23640 | 40213 ft | 461 kts | 249° |
| 2026-05-07 19:44 | 25.48426 | -142.30161 | 40217 ft | 461 kts | 248° |
| 2026-05-07 19:45 | 25.45896 | -142.36679 | 40215 ft | 461 kts | 248° |
| 2026-05-07 19:45 | 25.43364 | -142.43195 | 40211 ft | 461 kts | 248° |
| 2026-05-07 19:46 | 25.40825 | -142.49718 | 40210 ft | 461 kts | 248° |
| 2026-05-07 19:46 | 25.38287 | -142.56227 | 40211 ft | 461 kts | 248° |
| 2026-05-07 19:47 | 25.35746 | -142.62735 | 40211 ft | 461 kts | 248° |
| 2026-05-07 19:47 | 25.33202 | -142.69239 | 40212 ft | 461 kts | 248° |
| 2026-05-07 19:48 | 25.30668 | -142.75709 | 40211 ft | 461 kts | 248° |
| 2026-05-07 19:48 | 25.28118 | -142.82209 | 40211 ft | 461 kts | 248° |
| 2026-05-07 19:49 | 25.25565 | -142.88708 | 40213 ft | 461 kts | 248° |
| 2026-05-07 19:49 | 25.23009 | -142.95204 | 40208 ft | 461 kts | 248° |
| 2026-05-07 19:50 | 25.20450 | -143.01698 | 40211 ft | 461 kts | 248° |
| 2026-05-07 19:50 | 25.18318 | -143.07100 | 40212 ft | 461 kts | 248° |
| 2026-05-07 19:51 | 25.15749 | -143.13601 | 40211 ft | 461 kts | 248° |
| 2026-05-07 19:51 | 25.13194 | -143.20057 | 40213 ft | 461 kts | 248° |
| 2026-05-07 19:52 | 25.10610 | -143.26574 | 40212 ft | 461 kts | 248° |
| 2026-05-07 19:52 | 25.08037 | -143.33056 | 40209 ft | 461 kts | 248° |
| 2026-05-07 19:53 | 25.05474 | -143.39502 | 40208 ft | 461 kts | 248° |
| 2026-05-07 19:53 | 25.02896 | -143.45977 | 40212 ft | 461 kts | 248° |
| 2026-05-07 19:54 | 25.00310 | -143.52460 | 40204 ft | 461 kts | 247° |
| 2026-05-07 19:54 | 24.97727 | -143.58928 | 40208 ft | 461 kts | 247° |
| 2026-05-07 19:55 | 24.95136 | -143.65405 | 40206 ft | 461 kts | 247° |
| 2026-05-07 19:55 | 24.92547 | -143.71868 | 40206 ft | 461 kts | 247° |
| 2026-05-07 19:56 | 24.89968 | -143.78295 | 40207 ft | 461 kts | 247° |
| 2026-05-07 19:56 | 24.87374 | -143.84752 | 40207 ft | 461 kts | 247° |
| 2026-05-07 19:57 | 24.84772 | -143.91217 | 40207 ft | 461 kts | 247° |
| 2026-05-07 19:57 | 24.82172 | -143.97669 | 40205 ft | 461 kts | 247° |
| 2026-05-07 19:58 | 24.79570 | -144.04117 | 40204 ft | 461 kts | 247° |
| 2026-05-07 19:58 | 24.76965 | -144.10563 | 40201 ft | 461 kts | 247° |
| 2026-05-07 19:59 | 24.74356 | -144.17006 | 40202 ft | 461 kts | 247° |
| 2026-05-07 19:59 | 24.71746 | -144.23447 | 40204 ft | 461 kts | 247° |
| 2026-05-07 20:00 | 24.69132 | -144.29884 | 40205 ft | 461 kts | 247° |
| 2026-05-07 20:00 | 24.66516 | -144.36319 | 40200 ft | 461 kts | 247° |
| 2026-05-07 20:01 | 24.63910 | -144.42718 | 40203 ft | 461 kts | 247° |
| 2026-05-07 20:01 | 24.61289 | -144.49148 | 40199 ft | 461 kts | 246° |
| 2026-05-07 20:02 | 24.58661 | -144.55584 | 40200 ft | 461 kts | 246° |
| 2026-05-07 20:02 | 24.56034 | -144.62006 | 40201 ft | 461 kts | 246° |
| 2026-05-07 20:03 | 24.53401 | -144.68435 | 40200 ft | 461 kts | 246° |
| 2026-05-07 20:03 | 24.50770 | -144.74852 | 40199 ft | 461 kts | 246° |
| 2026-05-07 20:04 | 24.48131 | -144.81277 | 40198 ft | 461 kts | 246° |
| 2026-05-07 20:04 | 24.45512 | -144.87646 | 40200 ft | 461 kts | 246° |
| 2026-05-07 20:05 | 24.42874 | -144.94054 | 40199 ft | 461 kts | 246° |
| 2026-05-07 20:05 | 24.40231 | -145.00462 | 40199 ft | 461 kts | 246° |
| 2026-05-07 20:06 | 24.37577 | -145.06891 | 40196 ft | 461 kts | 246° |
| 2026-05-07 20:06 | 24.34926 | -145.13310 | 40198 ft | 461 kts | 246° |
| 2026-05-07 20:07 | 24.32294 | -145.19674 | 40196 ft | 461 kts | 246° |
| 2026-05-07 20:07 | 24.29637 | -145.26090 | 40198 ft | 462 kts | 246° |
| 2026-05-07 20:08 | 24.26981 | -145.32496 | 40199 ft | 462 kts | 246° |
| 2026-05-07 20:08 | 24.24317 | -145.38912 | 40196 ft | 462 kts | 246° |
| 2026-05-07 20:09 | 24.21667 | -145.45282 | 40199 ft | 462 kts | 246° |
| 2026-05-07 20:10 | 24.17670 | -145.54877 | 40196 ft | 462 kts | 246° |
| 2026-05-07 20:10 | 24.14995 | -145.61286 | 40200 ft | 462 kts | 246° |
| 2026-05-07 20:11 | 24.12323 | -145.67681 | 40194 ft | 462 kts | 246° |
| 2026-05-07 20:11 | 24.09647 | -145.74073 | 40200 ft | 462 kts | 246° |
| 2026-05-07 20:12 | 24.06966 | -145.80471 | 40191 ft | 462 kts | 246° |
| 2026-05-07 20:12 | 24.04286 | -145.86856 | 40193 ft | 462 kts | 246° |
| 2026-05-07 20:13 | 24.01604 | -145.93236 | 40188 ft | 462 kts | 246° |
| 2026-05-07 20:13 | 23.98921 | -145.99611 | 40187 ft | 461 kts | 245° |
| 2026-05-07 20:14 | 23.96245 | -146.05961 | 40190 ft | 461 kts | 245° |
| 2026-05-07 20:14 | 23.93558 | -146.12327 | 40189 ft | 461 kts | 245° |
| 2026-05-07 20:15 | 23.90869 | -146.18689 | 40188 ft | 461 kts | 245° |
| 2026-05-07 20:15 | 23.88178 | -146.25047 | 40181 ft | 461 kts | 245° |
| 2026-05-07 20:16 | 23.85480 | -146.31413 | 40185 ft | 461 kts | 245° |
| 2026-05-07 20:16 | 23.82784 | -146.37764 | 40183 ft | 461 kts | 245° |
| 2026-05-07 20:17 | 23.80087 | -146.44111 | 40186 ft | 461 kts | 245° |
| 2026-05-07 20:17 | 23.77401 | -146.50421 | 40181 ft | 460 kts | 245° |
| 2026-05-07 20:18 | 23.74700 | -146.56759 | 40177 ft | 460 kts | 245° |
| 2026-05-07 20:18 | 23.71993 | -146.63101 | 40182 ft | 460 kts | 245° |
| 2026-05-07 20:19 | 23.69290 | -146.69429 | 40183 ft | 460 kts | 245° |
| 2026-05-07 20:19 | 23.66580 | -146.75761 | 40180 ft | 460 kts | 245° |
| 2026-05-07 20:20 | 23.63891 | -146.82036 | 40178 ft | 460 kts | 245° |
| 2026-05-07 20:20 | 23.61179 | -146.88357 | 40179 ft | 459 kts | 245° |
| 2026-05-07 20:21 | 23.58470 | -146.94661 | 40179 ft | 459 kts | 245° |
| 2026-05-07 20:21 | 23.55760 | -147.00959 | 40175 ft | 459 kts | 245° |
| 2026-05-07 20:22 | 23.53050 | -147.07251 | 40175 ft | 459 kts | 245° |
| 2026-05-07 20:22 | 23.50338 | -147.13537 | 40181 ft | 458 kts | 245° |
| 2026-05-07 20:23 | 23.47642 | -147.19777 | 40180 ft | 458 kts | 245° |
| 2026-05-07 20:23 | 23.44927 | -147.26055 | 40182 ft | 458 kts | 245° |
| 2026-05-07 20:24 | 23.42204 | -147.32340 | 40176 ft | 458 kts | 245° |
| 2026-05-07 20:24 | 23.39484 | -147.38612 | 40170 ft | 458 kts | 245° |
| 2026-05-07 20:25 | 23.36757 | -147.44890 | 40175 ft | 458 kts | 245° |
| 2026-05-07 20:25 | 23.34038 | -147.51144 | 40177 ft | 458 kts | 245° |
| 2026-05-07 20:26 | 23.31308 | -147.57413 | 40176 ft | 458 kts | 245° |
| 2026-05-07 20:26 | 23.28599 | -147.63625 | 40175 ft | 457 kts | 245° |
| 2026-05-07 20:27 | 23.25867 | -147.69884 | 40172 ft | 457 kts | 245° |
| 2026-05-07 20:27 | 23.23137 | -147.76128 | 40167 ft | 457 kts | 245° |
| 2026-05-07 20:28 | 23.20401 | -147.82379 | 40168 ft | 457 kts | 245° |
| 2026-05-07 20:28 | 23.17667 | -147.88615 | 40169 ft | 457 kts | 244° |
| 2026-05-07 20:29 | 23.14931 | -147.94849 | 40171 ft | 457 kts | 244° |
| 2026-05-07 20:29 | 23.12206 | -148.01050 | 40170 ft | 457 kts | 244° |
| 2026-05-07 20:30 | 23.09464 | -148.07281 | 40169 ft | 457 kts | 244° |
| 2026-05-07 20:30 | 23.06715 | -148.13520 | 40167 ft | 457 kts | 244° |
| 2026-05-07 20:31 | 23.03964 | -148.19756 | 40167 ft | 457 kts | 244° |
| 2026-05-07 20:31 | 23.01233 | -148.25937 | 40163 ft | 457 kts | 244° |
| 2026-05-07 20:32 | 22.98478 | -148.32167 | 40165 ft | 457 kts | 244° |
| 2026-05-07 20:32 | 22.95724 | -148.38384 | 40166 ft | 457 kts | 244° |
| 2026-05-07 20:33 | 22.92969 | -148.44598 | 40159 ft | 457 kts | 244° |
| 2026-05-07 20:33 | 22.90207 | -148.50818 | 40162 ft | 457 kts | 244° |
| 2026-05-07 20:34 | 22.87461 | -148.56993 | 40157 ft | 457 kts | 244° |
| 2026-05-07 20:34 | 22.84700 | -148.63195 | 40156 ft | 457 kts | 244° |
| 2026-05-07 20:35 | 22.81934 | -148.69402 | 40156 ft | 456 kts | 244° |
| 2026-05-07 20:35 | 22.79170 | -148.75595 | 40158 ft | 456 kts | 244° |
| 2026-05-07 20:36 | 22.76400 | -148.81793 | 40155 ft | 456 kts | 244° |
| 2026-05-07 20:36 | 22.73633 | -148.87978 | 40157 ft | 456 kts | 244° |
| 2026-05-07 20:37 | 22.70863 | -148.94161 | 40155 ft | 456 kts | 244° |
| 2026-05-07 20:37 | 22.68104 | -149.00311 | 40154 ft | 456 kts | 244° |
| 2026-05-07 20:38 | 22.65329 | -149.06490 | 40154 ft | 456 kts | 244° |
| 2026-05-07 20:38 | 22.62552 | -149.12665 | 40153 ft | 456 kts | 244° |
| 2026-05-07 20:39 | 22.59773 | -149.18836 | 40152 ft | 456 kts | 244° |
| 2026-05-07 20:39 | 22.57460 | -149.23967 | 40150 ft | 456 kts | 244° |
| 2026-05-07 20:40 | 22.54679 | -149.30130 | 40151 ft | 456 kts | 244° |
| 2026-05-07 20:40 | 22.51897 | -149.36286 | 40149 ft | 455 kts | 244° |
| 2026-05-07 20:41 | 22.49110 | -149.42447 | 40148 ft | 455 kts | 244° |
| 2026-05-07 20:41 | 22.46340 | -149.48561 | 40148 ft | 455 kts | 244° |
| 2026-05-07 20:42 | 22.43555 | -149.54703 | 40148 ft | 455 kts | 244° |
| 2026-05-07 20:42 | 22.40806 | -149.60756 | 40148 ft | 455 kts | 244° |
| 2026-05-07 20:43 | 22.38815 | -149.65138 | 40147 ft | 455 kts | 244° |
| 2026-05-07 20:43 | 22.36023 | -149.71272 | 40144 ft | 455 kts | 244° |
| 2026-05-07 20:44 | 22.33225 | -149.77415 | 40144 ft | 455 kts | 244° |
| 2026-05-07 20:44 | 22.30445 | -149.83508 | 40145 ft | 455 kts | 244° |
| 2026-05-07 20:45 | 22.27648 | -149.89632 | 40145 ft | 455 kts | 244° |
| 2026-05-07 20:45 | 22.24847 | -149.95758 | 40143 ft | 455 kts | 244° |
| 2026-05-07 20:46 | 22.22044 | -150.01881 | 40141 ft | 454 kts | 244° |
| 2026-05-07 20:46 | 22.19239 | -150.07998 | 40143 ft | 454 kts | 244° |
| 2026-05-07 20:47 | 22.16438 | -150.14101 | 40142 ft | 454 kts | 244° |
| 2026-05-07 20:47 | 22.13633 | -150.20205 | 40144 ft | 454 kts | 244° |
| 2026-05-07 20:48 | 22.10829 | -150.26301 | 40139 ft | 454 kts | 244° |
| 2026-05-07 20:48 | 22.08023 | -150.32392 | 40140 ft | 453 kts | 244° |
| 2026-05-07 20:49 | 22.05218 | -150.38476 | 40139 ft | 453 kts | 244° |
| 2026-05-07 20:49 | 22.02428 | -150.44519 | 40142 ft | 452 kts | 244° |
| 2026-05-07 20:50 | 21.99619 | -150.50594 | 40138 ft | 452 kts | 244° |
| 2026-05-07 20:50 | 21.96809 | -150.56665 | 40140 ft | 452 kts | 244° |
| 2026-05-07 20:51 | 21.94000 | -150.62729 | 40140 ft | 452 kts | 244° |
| 2026-05-07 20:51 | 21.91187 | -150.68791 | 40139 ft | 452 kts | 244° |
| 2026-05-07 20:52 | 21.88372 | -150.74853 | 40136 ft | 452 kts | 244° |
| 2026-05-07 20:52 | 21.85561 | -150.80898 | 40133 ft | 451 kts | 244° |
| 2026-05-07 20:53 | 21.82767 | -150.86898 | 40131 ft | 451 kts | 244° |
| 2026-05-07 20:53 | 21.79952 | -150.92938 | 40136 ft | 451 kts | 244° |
| 2026-05-07 20:54 | 21.77137 | -150.98970 | 40131 ft | 451 kts | 244° |
| 2026-05-07 20:54 | 21.74319 | -151.05002 | 40133 ft | 450 kts | 244° |
| 2026-05-07 20:55 | 21.71518 | -151.10990 | 40131 ft | 450 kts | 244° |
| 2026-05-07 20:55 | 21.68697 | -151.17016 | 40131 ft | 450 kts | 244° |
| 2026-05-07 20:56 | 21.65879 | -151.23026 | 40131 ft | 450 kts | 244° |
| 2026-05-07 20:56 | 21.63059 | -151.29037 | 40130 ft | 450 kts | 244° |
| 2026-05-07 20:57 | 21.60240 | -151.35035 | 40131 ft | 450 kts | 244° |
| 2026-05-07 20:57 | 21.57415 | -151.41043 | 40131 ft | 449 kts | 244° |
| 2026-05-07 20:58 | 21.54612 | -151.46995 | 40130 ft | 449 kts | 244° |
| 2026-05-07 20:58 | 21.51748 | -151.52948 | 40130 ft | 449 kts | 243° |
| 2026-05-07 20:59 | 21.48855 | -151.58890 | 40129 ft | 448 kts | 243° |
| 2026-05-07 20:59 | 21.45971 | -151.64819 | 40127 ft | 447 kts | 243° |
| 2026-05-07 21:00 | 21.43094 | -151.70739 | 40127 ft | 447 kts | 243° |
| 2026-05-07 21:00 | 21.40219 | -151.76655 | 40128 ft | 446 kts | 243° |
| 2026-05-07 21:01 | 21.37344 | -151.82565 | 40124 ft | 446 kts | 243° |
| 2026-05-07 21:01 | 21.34470 | -151.88466 | 40125 ft | 446 kts | 243° |
| 2026-05-07 21:02 | 21.31613 | -151.94324 | 40125 ft | 446 kts | 243° |
| 2026-05-07 21:02 | 21.28738 | -152.00215 | 40123 ft | 445 kts | 243° |
| 2026-05-07 21:03 | 21.25864 | -152.06095 | 40125 ft | 445 kts | 243° |
| 2026-05-07 21:03 | 21.22989 | -152.11972 | 40124 ft | 445 kts | 243° |
| 2026-05-07 21:04 | 21.20109 | -152.17852 | 40120 ft | 445 kts | 243° |
| 2026-05-07 21:04 | 21.17226 | -152.23732 | 40121 ft | 445 kts | 243° |
| 2026-05-07 21:05 | 21.14346 | -152.29600 | 40126 ft | 444 kts | 243° |
| 2026-05-07 21:05 | 21.11482 | -152.35428 | 40126 ft | 444 kts | 243° |
| 2026-05-07 21:06 | 21.08601 | -152.41285 | 40119 ft | 444 kts | 243° |
| 2026-05-07 21:06 | 21.05717 | -152.47140 | 40124 ft | 444 kts | 243° |
| 2026-05-07 21:07 | 21.02835 | -152.52987 | 40118 ft | 444 kts | 243° |
| 2026-05-07 21:07 | 20.99968 | -152.58796 | 40119 ft | 444 kts | 243° |
| 2026-05-07 21:08 | 20.97084 | -152.64635 | 40115 ft | 444 kts | 243° |
| 2026-05-07 21:08 | 20.94195 | -152.70476 | 40116 ft | 444 kts | 243° |
| 2026-05-07 21:09 | 20.91305 | -152.76314 | 40118 ft | 444 kts | 243° |
| 2026-05-07 21:09 | 20.88416 | -152.82144 | 40117 ft | 443 kts | 243° |
| 2026-05-07 21:10 | 20.85542 | -152.87938 | 40117 ft | 443 kts | 243° |
| 2026-05-07 21:10 | 20.82648 | -152.93767 | 40116 ft | 443 kts | 243° |
| 2026-05-07 21:11 | 20.80342 | -152.99832 | 40121 ft | 441 kts | 256° |
| 2026-05-07 21:11 | 20.79406 | -153.09574 | 40126 ft | 441 kts | 270° |
| 2026-05-07 21:12 | 20.79479 | -153.16134 | 40115 ft | 442 kts | 270° |
| 2026-05-07 21:12 | 20.79550 | -153.22697 | 40118 ft | 442 kts | 270° |
| 2026-05-07 21:13 | 20.79586 | -153.29229 | 40119 ft | 442 kts | 270° |
| 2026-05-07 21:13 | 20.79602 | -153.35819 | 40118 ft | 443 kts | 269° |
| 2026-05-07 21:14 | 20.79612 | -153.42403 | 40121 ft | 443 kts | 269° |
| 2026-05-07 21:14 | 20.79620 | -153.48987 | 40120 ft | 443 kts | 269° |
| 2026-05-07 21:15 | 20.79625 | -153.55565 | 40120 ft | 442 kts | 269° |
| 2026-05-07 21:15 | 20.79629 | -153.62136 | 40123 ft | 442 kts | 269° |
| 2026-05-07 21:16 | 20.79630 | -153.68672 | 40124 ft | 442 kts | 269° |
| 2026-05-07 21:16 | 20.79628 | -153.75248 | 40118 ft | 442 kts | 269° |
| 2026-05-07 21:17 | 20.79624 | -153.81819 | 40124 ft | 442 kts | 269° |
| 2026-05-07 21:17 | 20.79618 | -153.88389 | 40122 ft | 442 kts | 269° |
| 2026-05-07 21:18 | 20.79609 | -153.94923 | 40122 ft | 442 kts | 269° |
| 2026-05-07 21:18 | 20.79597 | -154.01502 | 40124 ft | 442 kts | 269° |
| 2026-05-07 21:19 | 20.79584 | -154.08067 | 40126 ft | 442 kts | 269° |
| 2026-05-07 21:19 | 20.79567 | -154.14642 | 40123 ft | 442 kts | 269° |
| 2026-05-07 21:20 | 20.79548 | -154.21214 | 40125 ft | 442 kts | 269° |
| 2026-05-07 21:20 | 20.79527 | -154.27741 | 40126 ft | 442 kts | 269° |
| 2026-05-07 21:21 | 20.79503 | -154.34312 | 40127 ft | 442 kts | 269° |
| 2026-05-07 21:21 | 20.79476 | -154.40873 | 40130 ft | 441 kts | 269° |
| 2026-05-07 21:22 | 20.79448 | -154.47443 | 40127 ft | 441 kts | 269° |
| 2026-05-07 21:22 | 20.79416 | -154.54003 | 40125 ft | 441 kts | 269° |
| 2026-05-07 21:23 | 20.79382 | -154.60523 | 40125 ft | 441 kts | 269° |
| 2026-05-07 21:23 | 20.79346 | -154.67082 | 40128 ft | 441 kts | 269° |
| 2026-05-07 21:24 | 20.79307 | -154.73637 | 40129 ft | 441 kts | 269° |
| 2026-05-07 21:24 | 20.79266 | -154.80196 | 40127 ft | 441 kts | 269° |
| 2026-05-07 21:25 | 20.79222 | -154.86741 | 40132 ft | 441 kts | 269° |
| 2026-05-07 21:25 | 20.79176 | -154.93287 | 40131 ft | 440 kts | 269° |
| 2026-05-07 21:26 | 20.79127 | -154.99835 | 40131 ft | 440 kts | 269° |
| 2026-05-07 21:26 | 20.79076 | -155.06341 | 40131 ft | 440 kts | 269° |
| 2026-05-07 21:27 | 20.79023 | -155.12891 | 40130 ft | 440 kts | 269° |
| 2026-05-07 21:27 | 20.78967 | -155.19432 | 40131 ft | 440 kts | 269° |
| 2026-05-07 21:28 | 20.78918 | -155.24863 | 40130 ft | 440 kts | 269° |
| 2026-05-07 21:28 | 20.78858 | -155.31405 | 40132 ft | 440 kts | 269° |
| 2026-05-07 21:29 | 20.78794 | -155.37948 | 40131 ft | 440 kts | 269° |
| 2026-05-07 21:29 | 20.78729 | -155.44482 | 40133 ft | 439 kts | 269° |
| 2026-05-07 21:30 | 20.78661 | -155.51011 | 40133 ft | 439 kts | 269° |
| 2026-05-07 21:30 | 20.78591 | -155.57535 | 40131 ft | 439 kts | 269° |
| 2026-05-07 21:31 | 20.78518 | -155.64014 | 40131 ft | 439 kts | 269° |
| 2026-05-07 21:31 | 20.78443 | -155.70536 | 40132 ft | 438 kts | 269° |
| 2026-05-07 21:32 | 20.78365 | -155.77060 | 40135 ft | 438 kts | 269° |
| 2026-05-07 21:32 | 20.78286 | -155.83527 | 40136 ft | 438 kts | 269° |
| 2026-05-07 21:33 | 20.78204 | -155.90030 | 40139 ft | 438 kts | 269° |
| 2026-05-07 21:33 | 20.78119 | -155.96536 | 40147 ft | 437 kts | 269° |
| 2026-05-07 21:34 | 20.78032 | -156.03031 | 40140 ft | 437 kts | 269° |
| 2026-05-07 21:34 | 20.77942 | -156.09528 | 40142 ft | 437 kts | 269° |
| 2026-05-07 21:35 | 20.77850 | -156.16019 | 40141 ft | 437 kts | 270° |
| 2026-05-07 21:35 | 20.77756 | -156.22508 | 39982 ft | 435 kts | 269° |
| 2026-05-07 21:36 | 20.77708 | -156.25738 | 39643 ft | 435 kts | 269° |
| 2026-05-07 21:36 | 20.77659 | -156.28977 | 39236 ft | 438 kts | 269° |
| 2026-05-07 21:36 | 20.77610 | -156.32246 | 38797 ft | 441 kts | 269° |
| 2026-05-07 21:36 | 20.77559 | -156.35541 | 38243 ft | 444 kts | 269° |
| 2026-05-07 21:37 | 20.77507 | -156.38854 | 37654 ft | 448 kts | 269° |
| 2026-05-07 21:37 | 20.77455 | -156.42194 | 37057 ft | 452 kts | 269° |
| 2026-05-07 21:37 | 20.77401 | -156.45573 | 36453 ft | 456 kts | 269° |
| 2026-05-07 21:37 | 20.77347 | -156.48937 | 35860 ft | 460 kts | 269° |
| 2026-05-07 21:38 | 20.77290 | -156.52371 | 35257 ft | 464 kts | 269° |
| 2026-05-07 21:38 | 20.77233 | -156.55841 | 34591 ft | 468 kts | 269° |
| 2026-05-07 21:38 | 20.77174 | -156.59328 | 33691 ft | 469 kts | 269° |
| 2026-05-07 21:38 | 20.77115 | -156.62795 | 33018 ft | 465 kts | 269° |
| 2026-05-07 21:39 | 20.77057 | -156.66235 | 32373 ft | 461 kts | 269° |
| 2026-05-07 21:39 | 20.76997 | -156.69641 | 31747 ft | 457 kts | 268° |
| 2026-05-07 21:39 | 20.76938 | -156.73032 | 31165 ft | 453 kts | 268° |
| 2026-05-07 21:39 | 20.76878 | -156.76390 | 30583 ft | 450 kts | 268° |
| 2026-05-07 21:40 | 20.76818 | -156.79725 | 29954 ft | 447 kts | 268° |
| 2026-05-07 21:40 | 20.76758 | -156.83028 | 29247 ft | 443 kts | 268° |
| 2026-05-07 21:40 | 20.76698 | -156.86308 | 28571 ft | 440 kts | 268° |
| 2026-05-07 21:40 | 20.76638 | -156.89565 | 27917 ft | 436 kts | 268° |
| 2026-05-07 21:41 | 20.76579 | -156.92746 | 27289 ft | 432 kts | 268° |
| 2026-05-07 21:41 | 20.76539 | -156.95946 | 26670 ft | 429 kts | 271° |
| 2026-05-07 21:41 | 20.77009 | -156.99060 | 26043 ft | 422 kts | 287° |
| 2026-05-07 21:41 | 20.78019 | -157.01996 | 25462 ft | 418 kts | 290° |
| 2026-05-07 21:42 | 20.79033 | -157.04913 | 24862 ft | 417 kts | 289° |
| 2026-05-07 21:42 | 20.80007 | -157.07829 | 24264 ft | 416 kts | 288° |
| 2026-05-07 21:42 | 20.80949 | -157.10748 | 23657 ft | 415 kts | 288° |
| 2026-05-07 21:42 | 20.81881 | -157.13669 | 22984 ft | 413 kts | 288° |
| 2026-05-07 21:43 | 20.82808 | -157.16566 | 22361 ft | 410 kts | 288° |
| 2026-05-07 21:43 | 20.83733 | -157.19440 | 21773 ft | 407 kts | 288° |
| 2026-05-07 21:43 | 20.84654 | -157.22292 | 21202 ft | 405 kts | 288° |
| 2026-05-07 21:43 | 20.85568 | -157.25127 | 20643 ft | 402 kts | 288° |
| 2026-05-07 21:44 | 20.86476 | -157.27949 | 20082 ft | 400 kts | 288° |
| 2026-05-07 21:44 | 20.87378 | -157.30755 | 19522 ft | 398 kts | 288° |
| 2026-05-07 21:44 | 20.88265 | -157.33515 | 18970 ft | 397 kts | 288° |
| 2026-05-07 21:44 | 20.89160 | -157.36303 | 18411 ft | 396 kts | 288° |
| 2026-05-07 21:45 | 20.90052 | -157.39085 | 17795 ft | 395 kts | 288° |
| 2026-05-07 21:45 | 20.90941 | -157.41855 | 17231 ft | 392 kts | 288° |
| 2026-05-07 21:45 | 20.91825 | -157.44611 | 16588 ft | 392 kts | 288° |
| 2026-05-07 21:45 | 20.92708 | -157.47367 | 16020 ft | 390 kts | 288° |
| 2026-05-07 21:46 | 20.93582 | -157.50099 | 15490 ft | 387 kts | 288° |
| 2026-05-07 21:46 | 20.94451 | -157.52816 | 14953 ft | 384 kts | 287° |
| 2026-05-07 21:46 | 20.95316 | -157.55520 | 14422 ft | 382 kts | 287° |
| 2026-05-07 21:46 | 20.96156 | -157.58143 | 14137 ft | 373 kts | 288° |
| 2026-05-07 21:47 | 20.96987 | -157.60740 | 13904 ft | 365 kts | 288° |
| 2026-05-07 21:47 | 20.97807 | -157.63309 | 13565 ft | 366 kts | 287° |
| 2026-05-07 21:47 | 20.98629 | -157.65890 | 13157 ft | 366 kts | 287° |
| 2026-05-07 21:47 | 20.99448 | -157.68458 | 12752 ft | 363 kts | 287° |
| 2026-05-07 21:48 | 21.00258 | -157.71002 | 12366 ft | 359 kts | 287° |
| 2026-05-07 21:48 | 21.00789 | -157.72669 | 12107 ft | 356 kts | 287° |
| 2026-05-07 21:48 | 21.01150 | -157.73802 | 11925 ft | 355 kts | 287° |
| 2026-05-07 21:48 | 21.01943 | -157.76294 | 11553 ft | 352 kts | 287° |
| 2026-05-07 21:49 | 21.02729 | -157.78764 | 11172 ft | 350 kts | 287° |
| 2026-05-07 21:49 | 21.03512 | -157.81228 | 10804 ft | 350 kts | 287° |
| 2026-05-07 21:49 | 21.04286 | -157.83669 | 10429 ft | 347 kts | 287° |
| 2026-05-07 21:49 | 21.05061 | -157.86116 | 10098 ft | 346 kts | 287° |
| 2026-05-07 21:50 | 21.05823 | -157.88510 | 9993 ft | 331 kts | 287° |
| 2026-05-07 21:50 | 21.06553 | -157.90785 | 9966 ft | 314 kts | 287° |
| 2026-05-07 21:50 | 21.07248 | -157.92933 | 9962 ft | 297 kts | 287° |
| 2026-05-07 21:50 | 21.07918 | -157.95000 | 9971 ft | 295 kts | 287° |
| 2026-05-07 21:51 | 21.08596 | -157.97093 | 9976 ft | 297 kts | 287° |
| 2026-05-07 21:51 | 21.09252 | -157.99122 | 9959 ft | 279 kts | 287° |
| 2026-05-07 21:51 | 21.09881 | -158.01066 | 9700 ft | 273 kts | 287° |
| 2026-05-07 21:51 | 21.10492 | -158.02961 | 9372 ft | 269 kts | 288° |
| 2026-05-07 21:52 | 21.11099 | -158.04859 | 9056 ft | 269 kts | 287° |
| 2026-05-07 21:52 | 21.11696 | -158.06738 | 8738 ft | 268 kts | 287° |
| 2026-05-07 21:52 | 21.12293 | -158.08623 | 8419 ft | 267 kts | 287° |
| 2026-05-07 21:52 | 21.12883 | -158.10501 | 8114 ft | 266 kts | 287° |
| 2026-05-07 21:53 | 21.13472 | -158.12386 | 7796 ft | 267 kts | 287° |
| 2026-05-07 21:53 | 21.14058 | -158.14273 | 7488 ft | 267 kts | 287° |
| 2026-05-07 21:53 | 21.14641 | -158.16169 | 7169 ft | 269 kts | 287° |
| 2026-05-07 21:53 | 21.15223 | -158.18075 | 6790 ft | 270 kts | 287° |
| 2026-05-07 21:54 | 21.15806 | -158.19989 | 6390 ft | 269 kts | 289° |
| 2026-05-07 21:54 | 21.16740 | -158.21694 | 5984 ft | 268 kts | 315° |
| 2026-05-07 21:54 | 21.18319 | -158.22735 | 5597 ft | 270 kts | 343° |
| 2026-05-07 21:54 | 21.20161 | -158.23022 | 5254 ft | 268 kts | 356° |
| 2026-05-07 21:55 | 21.22012 | -158.23085 | 4930 ft | 267 kts | 359° |
| 2026-05-07 21:55 | 21.23841 | -158.23125 | 4568 ft | 255 kts | 359° |
| 2026-05-07 21:55 | 21.25564 | -158.23165 | 4278 ft | 241 kts | 359° |
| 2026-05-07 21:55 | 21.27193 | -158.22993 | 3967 ft | 234 kts | 21° |
| 2026-05-07 21:56 | 21.28504 | -158.21991 | 3736 ft | 236 kts | 50° |
| 2026-05-07 21:56 | 21.29436 | -158.20530 | 3490 ft | 240 kts | 58° |
| 2026-05-07 21:56 | 21.30304 | -158.18976 | 3257 ft | 244 kts | 59° |
| 2026-05-07 21:56 | 21.31165 | -158.17411 | 3103 ft | 241 kts | 59° |
| 2026-05-07 21:57 | 21.31992 | -158.15878 | 3036 ft | 232 kts | 62° |
| 2026-05-07 21:57 | 21.32382 | -158.14250 | 3012 ft | 225 kts | 83° |
| 2026-05-07 21:57 | 21.32498 | -158.12559 | 3010 ft | 231 kts | 86° |
| 2026-05-07 21:57 | 21.32528 | -158.10821 | 3003 ft | 234 kts | 88° |
| 2026-05-07 21:58 | 21.32524 | -158.09087 | 2709 ft | 231 kts | 88° |
| 2026-05-07 21:58 | 21.32522 | -158.07407 | 2386 ft | 217 kts | 87° |
| 2026-05-07 21:58 | 21.32522 | -158.05863 | 2111 ft | 198 kts | 87° |
| 2026-05-07 21:58 | 21.32523 | -158.04441 | 1867 ft | 185 kts | 87° |
| 2026-05-07 21:59 | 21.32521 | -158.03106 | 1633 ft | 173 kts | 86° |
| 2026-05-07 21:59 | 21.32524 | -158.01823 | 1409 ft | 170 kts | 88° |
| 2026-05-07 21:59 | 21.32527 | -158.00614 | 1155 ft | 152 kts | 87° |
| 2026-05-07 21:59 | 21.32524 | -157.99559 | 1071 ft | 136 kts | 87° |
| 2026-05-07 22:00 | 21.32563 | -157.98527 | 907 ft | 141 kts | 86° |
| 2026-05-07 22:00 | 21.32536 | -157.97470 | 741 ft | 143 kts | 88° |
| 2026-05-07 22:00 | 21.32529 | -157.96411 | 521 ft | 139 kts | 87° |
| 2026-05-07 22:00 | 21.32530 | -157.95403 | 323 ft | 134 kts | 86° |
| 2026-05-07 22:01 | 21.32525 | -157.94409 | 101 ft | 134 kts | 85° |
| 2026-05-07 22:01 | 21.32528 | -157.93439 | 29 ft | 120 kts | 90° |
| 2026-05-07 22:01 | 21.32526 | -157.92699 | 29 ft | 77 kts | 90° |
| 2026-05-07 22:01 | 21.32547 | -157.92294 | 29 ft | 32 kts | 67° |
| 2026-05-07 22:02 | 21.32607 | -157.92176 | 29 ft | 14 kts | 59° |
| 2026-05-07 22:02 | 21.32658 | -157.92083 | 28 ft | 14 kts | 59° |
| 2026-05-07 22:02 | 21.32709 | -157.91990 | 28 ft | 14 kts | 59° |
| 2026-05-07 22:02 | 21.32761 | -157.91896 | 28 ft | 15 kts | 63° |
| 2026-05-07 22:03 | 21.32775 | -157.91789 | 28 ft | 15 kts | 89° |
| 2026-05-07 22:03 | 21.32777 | -157.91690 | 28 ft | 11 kts | 85° |
| 2026-05-07 22:03 | 21.32810 | -157.91646 | 29 ft | 6 kts | 10° |
| 2026-05-07 22:03 | 21.32841 | -157.91645 | 29 ft | 4 kts | 1° |
| 2026-05-07 22:04 | 21.32857 | -157.91645 | 29 ft | 2 kts | 0° |
| 2026-05-07 22:04 | 21.32868 | -157.91645 | 29 ft | 2 kts | 0° |
| 2026-05-07 22:04 | 21.32878 | -157.91645 | 29 ft | 1 kts | 0° |
| 2026-05-07 22:04 | 21.32883 | -157.91645 | 29 ft | 0 kts | 0° |